<?xml version="1.0" encoding="UTF-8" standalone="no" ?>
<gpx xmlns="http://www.topografix.com/GPX/1/1" xmlns:xsi="http://www.w3.org/2001/XMLSchema-instance" xsi:schemaLocation="http://www.topografix.com/GPX/1/1 http://www.topografix.com/GPX/1/1/gpx.xsd" version="1.1" creator="VisuGPX - https://www.visugpx.com">
  <metadata>
    <name>Dent de Bédina &amp; Jas du Lièvre</name>
    <desc><![CDATA[Départ: Prapoutel
Dent de Bédina en traversée NO/SE
Jas du Lièvre N]]></desc>
  </metadata>
  <trk>
    <name><![CDATA[2015-03-29-01]]></name>
    <trkseg>
      <trkpt lat="45.24981" lon="5.99481">
        <ele>1413.2</ele>
        <time>2015-03-29T07:33:05Z</time>
      </trkpt>
      <trkpt lat="45.24976" lon="5.99468">
        <ele>1413</ele>
        <time>2015-03-29T07:33:40Z</time>
      </trkpt>
      <trkpt lat="45.24969" lon="5.9946">
        <ele>1413.4</ele>
        <time>2015-03-29T07:33:42Z</time>
      </trkpt>
      <trkpt lat="45.24962" lon="5.99468">
        <ele>1413.6</ele>
        <time>2015-03-29T07:33:53Z</time>
      </trkpt>
      <trkpt lat="45.2496" lon="5.99473">
        <ele>1413.1</ele>
        <time>2015-03-29T07:34:02Z</time>
      </trkpt>
      <trkpt lat="45.24959" lon="5.99486">
        <ele>1413.1</ele>
        <time>2015-03-29T07:34:04Z</time>
      </trkpt>
      <trkpt lat="45.24955" lon="5.99498">
        <ele>1413</ele>
        <time>2015-03-29T07:34:15Z</time>
      </trkpt>
      <trkpt lat="45.24959" lon="5.99508">
        <ele>1415.2</ele>
        <time>2015-03-29T07:36:29Z</time>
      </trkpt>
      <trkpt lat="45.24955" lon="5.99519">
        <ele>1416.8</ele>
        <time>2015-03-29T07:36:43Z</time>
      </trkpt>
      <trkpt lat="45.24948" lon="5.99526">
        <ele>1417.8</ele>
        <time>2015-03-29T07:36:52Z</time>
      </trkpt>
      <trkpt lat="45.24942" lon="5.99534">
        <ele>1418.2</ele>
        <time>2015-03-29T07:37:00Z</time>
      </trkpt>
      <trkpt lat="45.24936" lon="5.99542">
        <ele>1418.9</ele>
        <time>2015-03-29T07:37:09Z</time>
      </trkpt>
      <trkpt lat="45.24928" lon="5.99547">
        <ele>1419.9</ele>
        <time>2015-03-29T07:37:22Z</time>
      </trkpt>
      <trkpt lat="45.24921" lon="5.99554">
        <ele>1420.3</ele>
        <time>2015-03-29T07:37:33Z</time>
      </trkpt>
      <trkpt lat="45.24913" lon="5.9956">
        <ele>1421.8</ele>
        <time>2015-03-29T07:37:44Z</time>
      </trkpt>
      <trkpt lat="45.24907" lon="5.99567">
        <ele>1422</ele>
        <time>2015-03-29T07:37:54Z</time>
      </trkpt>
      <trkpt lat="45.24899" lon="5.99572">
        <ele>1423.2</ele>
        <time>2015-03-29T07:38:15Z</time>
      </trkpt>
      <trkpt lat="45.2489" lon="5.99574">
        <ele>1422.7</ele>
        <time>2015-03-29T07:39:41Z</time>
      </trkpt>
      <trkpt lat="45.24882" lon="5.99578">
        <ele>1424.3</ele>
        <time>2015-03-29T07:39:52Z</time>
      </trkpt>
      <trkpt lat="45.24875" lon="5.99585">
        <ele>1425.9</ele>
        <time>2015-03-29T07:40:03Z</time>
      </trkpt>
      <trkpt lat="45.24869" lon="5.99594">
        <ele>1426.9</ele>
        <time>2015-03-29T07:40:15Z</time>
      </trkpt>
      <trkpt lat="45.24862" lon="5.996">
        <ele>1427.7</ele>
        <time>2015-03-29T07:40:23Z</time>
      </trkpt>
      <trkpt lat="45.24854" lon="5.99606">
        <ele>1428.4</ele>
        <time>2015-03-29T07:40:34Z</time>
      </trkpt>
      <trkpt lat="45.24849" lon="5.99616">
        <ele>1428.9</ele>
        <time>2015-03-29T07:40:43Z</time>
      </trkpt>
      <trkpt lat="45.24843" lon="5.99625">
        <ele>1430</ele>
        <time>2015-03-29T07:40:52Z</time>
      </trkpt>
      <trkpt lat="45.24837" lon="5.99631">
        <ele>1430.4</ele>
        <time>2015-03-29T07:41:00Z</time>
      </trkpt>
      <trkpt lat="45.2483" lon="5.9964">
        <ele>1430.8</ele>
        <time>2015-03-29T07:41:08Z</time>
      </trkpt>
      <trkpt lat="45.24824" lon="5.99648">
        <ele>1431.2</ele>
        <time>2015-03-29T07:41:17Z</time>
      </trkpt>
      <trkpt lat="45.24817" lon="5.99655">
        <ele>1431.5</ele>
        <time>2015-03-29T07:41:25Z</time>
      </trkpt>
      <trkpt lat="45.2481" lon="5.99664">
        <ele>1431.5</ele>
        <time>2015-03-29T07:41:35Z</time>
      </trkpt>
      <trkpt lat="45.24803" lon="5.99669">
        <ele>1431.5</ele>
        <time>2015-03-29T07:41:43Z</time>
      </trkpt>
      <trkpt lat="45.24797" lon="5.99678">
        <ele>1432.5</ele>
        <time>2015-03-29T07:41:54Z</time>
      </trkpt>
      <trkpt lat="45.24792" lon="5.99687">
        <ele>1432.9</ele>
        <time>2015-03-29T07:42:03Z</time>
      </trkpt>
      <trkpt lat="45.24786" lon="5.99695">
        <ele>1433.8</ele>
        <time>2015-03-29T07:42:11Z</time>
      </trkpt>
      <trkpt lat="45.24781" lon="5.99705">
        <ele>1434</ele>
        <time>2015-03-29T07:42:21Z</time>
      </trkpt>
      <trkpt lat="45.24774" lon="5.99712">
        <ele>1434.7</ele>
        <time>2015-03-29T07:42:29Z</time>
      </trkpt>
      <trkpt lat="45.24768" lon="5.9972">
        <ele>1436.3</ele>
        <time>2015-03-29T07:42:39Z</time>
      </trkpt>
      <trkpt lat="45.24762" lon="5.99728">
        <ele>1436.6</ele>
        <time>2015-03-29T07:42:50Z</time>
      </trkpt>
      <trkpt lat="45.24755" lon="5.99736">
        <ele>1438.7</ele>
        <time>2015-03-29T07:43:03Z</time>
      </trkpt>
      <trkpt lat="45.24749" lon="5.99742">
        <ele>1440.3</ele>
        <time>2015-03-29T07:43:13Z</time>
      </trkpt>
      <trkpt lat="45.24742" lon="5.99748">
        <ele>1441.7</ele>
        <time>2015-03-29T07:43:22Z</time>
      </trkpt>
      <trkpt lat="45.24734" lon="5.99755">
        <ele>1443.1</ele>
        <time>2015-03-29T07:43:33Z</time>
      </trkpt>
      <trkpt lat="45.24727" lon="5.99759">
        <ele>1445.1</ele>
        <time>2015-03-29T07:43:43Z</time>
      </trkpt>
      <trkpt lat="45.24719" lon="5.99765">
        <ele>1445.3</ele>
        <time>2015-03-29T07:43:52Z</time>
      </trkpt>
      <trkpt lat="45.24712" lon="5.99774">
        <ele>1446</ele>
        <time>2015-03-29T07:44:02Z</time>
      </trkpt>
      <trkpt lat="45.24704" lon="5.99779">
        <ele>1447.3</ele>
        <time>2015-03-29T07:44:11Z</time>
      </trkpt>
      <trkpt lat="45.24698" lon="5.99787">
        <ele>1448.1</ele>
        <time>2015-03-29T07:44:20Z</time>
      </trkpt>
      <trkpt lat="45.24691" lon="5.99794">
        <ele>1448.5</ele>
        <time>2015-03-29T07:44:29Z</time>
      </trkpt>
      <trkpt lat="45.24684" lon="5.99801">
        <ele>1448.5</ele>
        <time>2015-03-29T07:44:40Z</time>
      </trkpt>
      <trkpt lat="45.24675" lon="5.99804">
        <ele>1451.9</ele>
        <time>2015-03-29T07:44:56Z</time>
      </trkpt>
      <trkpt lat="45.24668" lon="5.99811">
        <ele>1454.8</ele>
        <time>2015-03-29T07:45:11Z</time>
      </trkpt>
      <trkpt lat="45.2466" lon="5.99813">
        <ele>1458</ele>
        <time>2015-03-29T07:45:28Z</time>
      </trkpt>
      <trkpt lat="45.24654" lon="5.99823">
        <ele>1462.9</ele>
        <time>2015-03-29T07:45:54Z</time>
      </trkpt>
      <trkpt lat="45.24649" lon="5.99834">
        <ele>1466.6</ele>
        <time>2015-03-29T07:46:12Z</time>
      </trkpt>
      <trkpt lat="45.24641" lon="5.99834">
        <ele>1470</ele>
        <time>2015-03-29T07:46:35Z</time>
      </trkpt>
      <trkpt lat="45.24634" lon="5.99841">
        <ele>1474.6</ele>
        <time>2015-03-29T07:46:58Z</time>
      </trkpt>
      <trkpt lat="45.24634" lon="5.99853">
        <ele>1477.2</ele>
        <time>2015-03-29T07:47:18Z</time>
      </trkpt>
      <trkpt lat="45.24632" lon="5.99865">
        <ele>1479.8</ele>
        <time>2015-03-29T07:47:36Z</time>
      </trkpt>
      <trkpt lat="45.24626" lon="5.99874">
        <ele>1484.1</ele>
        <time>2015-03-29T07:48:03Z</time>
      </trkpt>
      <trkpt lat="45.24618" lon="5.99879">
        <ele>1487.7</ele>
        <time>2015-03-29T07:48:26Z</time>
      </trkpt>
      <trkpt lat="45.24615" lon="5.99891">
        <ele>1491</ele>
        <time>2015-03-29T07:48:49Z</time>
      </trkpt>
      <trkpt lat="45.24619" lon="5.99902">
        <ele>1493.4</ele>
        <time>2015-03-29T07:49:44Z</time>
      </trkpt>
      <trkpt lat="45.24614" lon="5.99911">
        <ele>1496.3</ele>
        <time>2015-03-29T07:51:14Z</time>
      </trkpt>
      <trkpt lat="45.24606" lon="5.99916">
        <ele>1498.9</ele>
        <time>2015-03-29T07:51:30Z</time>
      </trkpt>
      <trkpt lat="45.24599" lon="5.99923">
        <ele>1502.2</ele>
        <time>2015-03-29T07:51:51Z</time>
      </trkpt>
      <trkpt lat="45.24597" lon="5.99936">
        <ele>1506.7</ele>
        <time>2015-03-29T07:52:15Z</time>
      </trkpt>
      <trkpt lat="45.24597" lon="5.99948">
        <ele>1511</ele>
        <time>2015-03-29T07:52:38Z</time>
      </trkpt>
      <trkpt lat="45.24598" lon="5.9996">
        <ele>1513.9</ele>
        <time>2015-03-29T07:53:10Z</time>
      </trkpt>
      <trkpt lat="45.2459" lon="5.99966">
        <ele>1513.9</ele>
        <time>2015-03-29T07:53:50Z</time>
      </trkpt>
      <trkpt lat="45.24588" lon="5.99978">
        <ele>1518.9</ele>
        <time>2015-03-29T07:55:05Z</time>
      </trkpt>
      <trkpt lat="45.24591" lon="5.9999">
        <ele>1522.4</ele>
        <time>2015-03-29T07:55:24Z</time>
      </trkpt>
      <trkpt lat="45.24595" lon="6">
        <ele>1526.5</ele>
        <time>2015-03-29T07:55:43Z</time>
      </trkpt>
      <trkpt lat="45.24601" lon="6.0001">
        <ele>1528.9</ele>
        <time>2015-03-29T07:55:59Z</time>
      </trkpt>
      <trkpt lat="45.24599" lon="6.00022">
        <ele>1532.2</ele>
        <time>2015-03-29T07:56:21Z</time>
      </trkpt>
      <trkpt lat="45.24591" lon="6.00026">
        <ele>1535.7</ele>
        <time>2015-03-29T07:56:43Z</time>
      </trkpt>
      <trkpt lat="45.24588" lon="6.00038">
        <ele>1537.8</ele>
        <time>2015-03-29T07:57:01Z</time>
      </trkpt>
      <trkpt lat="45.24582" lon="6.00047">
        <ele>1542.1</ele>
        <time>2015-03-29T07:57:22Z</time>
      </trkpt>
      <trkpt lat="45.24577" lon="6.00058">
        <ele>1545.2</ele>
        <time>2015-03-29T07:57:39Z</time>
      </trkpt>
      <trkpt lat="45.24574" lon="6.00069">
        <ele>1547.8</ele>
        <time>2015-03-29T07:57:59Z</time>
      </trkpt>
      <trkpt lat="45.24577" lon="6.00081">
        <ele>1550.9</ele>
        <time>2015-03-29T07:58:17Z</time>
      </trkpt>
      <trkpt lat="45.24581" lon="6.00092">
        <ele>1555</ele>
        <time>2015-03-29T07:58:37Z</time>
      </trkpt>
      <trkpt lat="45.24581" lon="6.00104">
        <ele>1558.8</ele>
        <time>2015-03-29T07:59:03Z</time>
      </trkpt>
      <trkpt lat="45.2458" lon="6.00117">
        <ele>1562.2</ele>
        <time>2015-03-29T07:59:22Z</time>
      </trkpt>
      <trkpt lat="45.24574" lon="6.00126">
        <ele>1565</ele>
        <time>2015-03-29T07:59:41Z</time>
      </trkpt>
      <trkpt lat="45.24572" lon="6.00138">
        <ele>1568.4</ele>
        <time>2015-03-29T08:00:03Z</time>
      </trkpt>
      <trkpt lat="45.24572" lon="6.00151">
        <ele>1571.8</ele>
        <time>2015-03-29T08:00:20Z</time>
      </trkpt>
      <trkpt lat="45.24572" lon="6.00163">
        <ele>1574</ele>
        <time>2015-03-29T08:00:50Z</time>
      </trkpt>
      <trkpt lat="45.24569" lon="6.00175">
        <ele>1577.4</ele>
        <time>2015-03-29T08:02:01Z</time>
      </trkpt>
      <trkpt lat="45.24563" lon="6.00184">
        <ele>1580.4</ele>
        <time>2015-03-29T08:02:29Z</time>
      </trkpt>
      <trkpt lat="45.24556" lon="6.00191">
        <ele>1583.1</ele>
        <time>2015-03-29T08:02:45Z</time>
      </trkpt>
      <trkpt lat="45.24552" lon="6.00202">
        <ele>1586.1</ele>
        <time>2015-03-29T08:02:57Z</time>
      </trkpt>
      <trkpt lat="45.24544" lon="6.00207">
        <ele>1586.8</ele>
        <time>2015-03-29T08:03:19Z</time>
      </trkpt>
      <trkpt lat="45.2454" lon="6.00217">
        <ele>1588.8</ele>
        <time>2015-03-29T08:03:34Z</time>
      </trkpt>
      <trkpt lat="45.24537" lon="6.00229">
        <ele>1589.5</ele>
        <time>2015-03-29T08:04:25Z</time>
      </trkpt>
      <trkpt lat="45.2453" lon="6.00237">
        <ele>1590.4</ele>
        <time>2015-03-29T08:06:04Z</time>
      </trkpt>
      <trkpt lat="45.24524" lon="6.00243">
        <ele>1591.4</ele>
        <time>2015-03-29T08:06:14Z</time>
      </trkpt>
      <trkpt lat="45.24516" lon="6.0025">
        <ele>1592.5</ele>
        <time>2015-03-29T08:06:24Z</time>
      </trkpt>
      <trkpt lat="45.2451" lon="6.00258">
        <ele>1594.4</ele>
        <time>2015-03-29T08:06:34Z</time>
      </trkpt>
      <trkpt lat="45.24504" lon="6.00266">
        <ele>1595.7</ele>
        <time>2015-03-29T08:06:44Z</time>
      </trkpt>
      <trkpt lat="45.24498" lon="6.00276">
        <ele>1596.8</ele>
        <time>2015-03-29T08:06:53Z</time>
      </trkpt>
      <trkpt lat="45.24493" lon="6.00287">
        <ele>1598</ele>
        <time>2015-03-29T08:07:03Z</time>
      </trkpt>
      <trkpt lat="45.24488" lon="6.00297">
        <ele>1598.4</ele>
        <time>2015-03-29T08:07:13Z</time>
      </trkpt>
      <trkpt lat="45.24484" lon="6.00308">
        <ele>1599.7</ele>
        <time>2015-03-29T08:07:23Z</time>
      </trkpt>
      <trkpt lat="45.24481" lon="6.00319">
        <ele>1601.1</ele>
        <time>2015-03-29T08:07:33Z</time>
      </trkpt>
      <trkpt lat="45.24478" lon="6.00331">
        <ele>1602.6</ele>
        <time>2015-03-29T08:07:43Z</time>
      </trkpt>
      <trkpt lat="45.24474" lon="6.00342">
        <ele>1603.3</ele>
        <time>2015-03-29T08:07:54Z</time>
      </trkpt>
      <trkpt lat="45.2447" lon="6.00353">
        <ele>1604.6</ele>
        <time>2015-03-29T08:08:03Z</time>
      </trkpt>
      <trkpt lat="45.24466" lon="6.00364">
        <ele>1606.1</ele>
        <time>2015-03-29T08:08:13Z</time>
      </trkpt>
      <trkpt lat="45.24462" lon="6.00376">
        <ele>1607.3</ele>
        <time>2015-03-29T08:08:26Z</time>
      </trkpt>
      <trkpt lat="45.24458" lon="6.00385">
        <ele>1609.5</ele>
        <time>2015-03-29T08:08:37Z</time>
      </trkpt>
      <trkpt lat="45.24458" lon="6.00385">
        <ele>1609.5</ele>
        <time>2015-03-29T08:08:37Z</time>
      </trkpt>
      <trkpt lat="45.24453" lon="6.00396">
        <ele>1610.4</ele>
        <time>2015-03-29T08:08:48Z</time>
      </trkpt>
      <trkpt lat="45.24446" lon="6.00402">
        <ele>1612</ele>
        <time>2015-03-29T08:08:57Z</time>
      </trkpt>
      <trkpt lat="45.24441" lon="6.00412">
        <ele>1613</ele>
        <time>2015-03-29T08:09:06Z</time>
      </trkpt>
      <trkpt lat="45.24437" lon="6.00424">
        <ele>1615.2</ele>
        <time>2015-03-29T08:09:18Z</time>
      </trkpt>
      <trkpt lat="45.24432" lon="6.00433">
        <ele>1616.2</ele>
        <time>2015-03-29T08:09:28Z</time>
      </trkpt>
      <trkpt lat="45.24427" lon="6.00444">
        <ele>1617</ele>
        <time>2015-03-29T08:09:38Z</time>
      </trkpt>
      <trkpt lat="45.24421" lon="6.00453">
        <ele>1617.9</ele>
        <time>2015-03-29T08:09:47Z</time>
      </trkpt>
      <trkpt lat="45.24417" lon="6.00465">
        <ele>1619</ele>
        <time>2015-03-29T08:09:56Z</time>
      </trkpt>
      <trkpt lat="45.24411" lon="6.00473">
        <ele>1619.2</ele>
        <time>2015-03-29T08:10:09Z</time>
      </trkpt>
      <trkpt lat="45.24404" lon="6.00478">
        <ele>1620.4</ele>
        <time>2015-03-29T08:10:18Z</time>
      </trkpt>
      <trkpt lat="45.24397" lon="6.00484">
        <ele>1620.4</ele>
        <time>2015-03-29T08:10:25Z</time>
      </trkpt>
      <trkpt lat="45.2439" lon="6.00493">
        <ele>1621.2</ele>
        <time>2015-03-29T08:10:34Z</time>
      </trkpt>
      <trkpt lat="45.24384" lon="6.00501">
        <ele>1622.6</ele>
        <time>2015-03-29T08:10:44Z</time>
      </trkpt>
      <trkpt lat="45.24378" lon="6.00508">
        <ele>1624.6</ele>
        <time>2015-03-29T08:10:55Z</time>
      </trkpt>
      <trkpt lat="45.24371" lon="6.00516">
        <ele>1625.1</ele>
        <time>2015-03-29T08:11:06Z</time>
      </trkpt>
      <trkpt lat="45.24364" lon="6.00524">
        <ele>1626.5</ele>
        <time>2015-03-29T08:11:17Z</time>
      </trkpt>
      <trkpt lat="45.24357" lon="6.0053">
        <ele>1627.9</ele>
        <time>2015-03-29T08:11:28Z</time>
      </trkpt>
      <trkpt lat="45.2435" lon="6.00535">
        <ele>1629</ele>
        <time>2015-03-29T08:11:35Z</time>
      </trkpt>
      <trkpt lat="45.24343" lon="6.00541">
        <ele>1629.7</ele>
        <time>2015-03-29T08:11:43Z</time>
      </trkpt>
      <trkpt lat="45.24336" lon="6.00548">
        <ele>1630.7</ele>
        <time>2015-03-29T08:11:52Z</time>
      </trkpt>
      <trkpt lat="45.2433" lon="6.00553">
        <ele>1631.7</ele>
        <time>2015-03-29T08:12:01Z</time>
      </trkpt>
      <trkpt lat="45.24321" lon="6.00558">
        <ele>1632.5</ele>
        <time>2015-03-29T08:12:10Z</time>
      </trkpt>
      <trkpt lat="45.24315" lon="6.00565">
        <ele>1633.2</ele>
        <time>2015-03-29T08:12:17Z</time>
      </trkpt>
      <trkpt lat="45.24308" lon="6.00572">
        <ele>1634.6</ele>
        <time>2015-03-29T08:12:27Z</time>
      </trkpt>
      <trkpt lat="45.24301" lon="6.0058">
        <ele>1635.8</ele>
        <time>2015-03-29T08:12:38Z</time>
      </trkpt>
      <trkpt lat="45.24294" lon="6.00588">
        <ele>1637.5</ele>
        <time>2015-03-29T08:12:53Z</time>
      </trkpt>
      <trkpt lat="45.24288" lon="6.00597">
        <ele>1639.2</ele>
        <time>2015-03-29T08:13:03Z</time>
      </trkpt>
      <trkpt lat="45.24281" lon="6.00603">
        <ele>1641.2</ele>
        <time>2015-03-29T08:13:14Z</time>
      </trkpt>
      <trkpt lat="45.24273" lon="6.00609">
        <ele>1643.2</ele>
        <time>2015-03-29T08:13:26Z</time>
      </trkpt>
      <trkpt lat="45.24266" lon="6.00615">
        <ele>1645</ele>
        <time>2015-03-29T08:13:39Z</time>
      </trkpt>
      <trkpt lat="45.24259" lon="6.00623">
        <ele>1647.4</ele>
        <time>2015-03-29T08:13:52Z</time>
      </trkpt>
      <trkpt lat="45.24254" lon="6.00632">
        <ele>1649.4</ele>
        <time>2015-03-29T08:14:03Z</time>
      </trkpt>
      <trkpt lat="45.24248" lon="6.00641">
        <ele>1650.8</ele>
        <time>2015-03-29T08:14:15Z</time>
      </trkpt>
      <trkpt lat="45.24243" lon="6.00649">
        <ele>1652</ele>
        <time>2015-03-29T08:14:26Z</time>
      </trkpt>
      <trkpt lat="45.24236" lon="6.00657">
        <ele>1653.9</ele>
        <time>2015-03-29T08:14:38Z</time>
      </trkpt>
      <trkpt lat="45.24231" lon="6.00668">
        <ele>1655.1</ele>
        <time>2015-03-29T08:14:50Z</time>
      </trkpt>
      <trkpt lat="45.24229" lon="6.00678">
        <ele>1656.9</ele>
        <time>2015-03-29T08:15:00Z</time>
      </trkpt>
      <trkpt lat="45.24222" lon="6.00687">
        <ele>1658.1</ele>
        <time>2015-03-29T08:15:11Z</time>
      </trkpt>
      <trkpt lat="45.24215" lon="6.00694">
        <ele>1660.1</ele>
        <time>2015-03-29T08:15:24Z</time>
      </trkpt>
      <trkpt lat="45.24209" lon="6.00702">
        <ele>1662.3</ele>
        <time>2015-03-29T08:15:39Z</time>
      </trkpt>
      <trkpt lat="45.24204" lon="6.00712">
        <ele>1664.9</ele>
        <time>2015-03-29T08:15:52Z</time>
      </trkpt>
      <trkpt lat="45.24199" lon="6.00722">
        <ele>1665.6</ele>
        <time>2015-03-29T08:16:04Z</time>
      </trkpt>
      <trkpt lat="45.24194" lon="6.0073">
        <ele>1667</ele>
        <time>2015-03-29T08:16:14Z</time>
      </trkpt>
      <trkpt lat="45.2419" lon="6.00741">
        <ele>1668</ele>
        <time>2015-03-29T08:16:23Z</time>
      </trkpt>
      <trkpt lat="45.24184" lon="6.00749">
        <ele>1668.7</ele>
        <time>2015-03-29T08:16:35Z</time>
      </trkpt>
      <trkpt lat="45.24183" lon="6.00762">
        <ele>1671.3</ele>
        <time>2015-03-29T08:16:56Z</time>
      </trkpt>
      <trkpt lat="45.24176" lon="6.00769">
        <ele>1673.9</ele>
        <time>2015-03-29T08:19:33Z</time>
      </trkpt>
      <trkpt lat="45.24169" lon="6.00775">
        <ele>1674</ele>
        <time>2015-03-29T08:21:16Z</time>
      </trkpt>
      <trkpt lat="45.24163" lon="6.00785">
        <ele>1676.2</ele>
        <time>2015-03-29T08:21:30Z</time>
      </trkpt>
      <trkpt lat="45.24157" lon="6.00792">
        <ele>1677.4</ele>
        <time>2015-03-29T08:21:42Z</time>
      </trkpt>
      <trkpt lat="45.2415" lon="6.00799">
        <ele>1679.2</ele>
        <time>2015-03-29T08:21:53Z</time>
      </trkpt>
      <trkpt lat="45.24142" lon="6.00805">
        <ele>1680.5</ele>
        <time>2015-03-29T08:22:05Z</time>
      </trkpt>
      <trkpt lat="45.24137" lon="6.00814">
        <ele>1681.6</ele>
        <time>2015-03-29T08:22:17Z</time>
      </trkpt>
      <trkpt lat="45.24131" lon="6.00822">
        <ele>1684.1</ele>
        <time>2015-03-29T08:22:33Z</time>
      </trkpt>
      <trkpt lat="45.24122" lon="6.00822">
        <ele>1686.1</ele>
        <time>2015-03-29T08:22:47Z</time>
      </trkpt>
      <trkpt lat="45.24114" lon="6.00815">
        <ele>1689.1</ele>
        <time>2015-03-29T08:23:05Z</time>
      </trkpt>
      <trkpt lat="45.24108" lon="6.00808">
        <ele>1691.7</ele>
        <time>2015-03-29T08:23:23Z</time>
      </trkpt>
      <trkpt lat="45.24101" lon="6.00802">
        <ele>1693.2</ele>
        <time>2015-03-29T08:23:32Z</time>
      </trkpt>
      <trkpt lat="45.24094" lon="6.00795">
        <ele>1693.8</ele>
        <time>2015-03-29T08:23:41Z</time>
      </trkpt>
      <trkpt lat="45.24087" lon="6.00789">
        <ele>1696.4</ele>
        <time>2015-03-29T08:23:55Z</time>
      </trkpt>
      <trkpt lat="45.24081" lon="6.0078">
        <ele>1698.8</ele>
        <time>2015-03-29T08:24:16Z</time>
      </trkpt>
      <trkpt lat="45.24075" lon="6.00771">
        <ele>1702.5</ele>
        <time>2015-03-29T08:24:37Z</time>
      </trkpt>
      <trkpt lat="45.24067" lon="6.00765">
        <ele>1704.7</ele>
        <time>2015-03-29T08:24:52Z</time>
      </trkpt>
      <trkpt lat="45.24059" lon="6.00764">
        <ele>1706.8</ele>
        <time>2015-03-29T08:25:07Z</time>
      </trkpt>
      <trkpt lat="45.24051" lon="6.00764">
        <ele>1708</ele>
        <time>2015-03-29T08:25:15Z</time>
      </trkpt>
      <trkpt lat="45.24043" lon="6.00766">
        <ele>1711</ele>
        <time>2015-03-29T08:25:35Z</time>
      </trkpt>
      <trkpt lat="45.24035" lon="6.00764">
        <ele>1713.3</ele>
        <time>2015-03-29T08:26:00Z</time>
      </trkpt>
      <trkpt lat="45.24026" lon="6.00763">
        <ele>1715.3</ele>
        <time>2015-03-29T08:26:15Z</time>
      </trkpt>
      <trkpt lat="45.24029" lon="6.00775">
        <ele>1721.8</ele>
        <time>2015-03-29T08:27:04Z</time>
      </trkpt>
      <trkpt lat="45.24033" lon="6.00786">
        <ele>1726.3</ele>
        <time>2015-03-29T08:27:20Z</time>
      </trkpt>
      <trkpt lat="45.24039" lon="6.00795">
        <ele>1727.8</ele>
        <time>2015-03-29T08:27:37Z</time>
      </trkpt>
      <trkpt lat="45.24045" lon="6.00804">
        <ele>1729.7</ele>
        <time>2015-03-29T08:27:53Z</time>
      </trkpt>
      <trkpt lat="45.24037" lon="6.00809">
        <ele>1732.8</ele>
        <time>2015-03-29T08:28:13Z</time>
      </trkpt>
      <trkpt lat="45.24028" lon="6.00808">
        <ele>1735.4</ele>
        <time>2015-03-29T08:28:31Z</time>
      </trkpt>
      <trkpt lat="45.2402" lon="6.00809">
        <ele>1737.3</ele>
        <time>2015-03-29T08:28:46Z</time>
      </trkpt>
      <trkpt lat="45.24014" lon="6.00818">
        <ele>1741</ele>
        <time>2015-03-29T08:29:05Z</time>
      </trkpt>
      <trkpt lat="45.24012" lon="6.0083">
        <ele>1742</ele>
        <time>2015-03-29T08:29:20Z</time>
      </trkpt>
      <trkpt lat="45.24009" lon="6.00841">
        <ele>1743</ele>
        <time>2015-03-29T08:29:32Z</time>
      </trkpt>
      <trkpt lat="45.24007" lon="6.00853">
        <ele>1745.4</ele>
        <time>2015-03-29T08:29:49Z</time>
      </trkpt>
      <trkpt lat="45.24002" lon="6.00865">
        <ele>1748.9</ele>
        <time>2015-03-29T08:30:16Z</time>
      </trkpt>
      <trkpt lat="45.23996" lon="6.00872">
        <ele>1751.5</ele>
        <time>2015-03-29T08:30:29Z</time>
      </trkpt>
      <trkpt lat="45.23991" lon="6.00881">
        <ele>1752.6</ele>
        <time>2015-03-29T08:30:41Z</time>
      </trkpt>
      <trkpt lat="45.23983" lon="6.00887">
        <ele>1753.5</ele>
        <time>2015-03-29T08:30:52Z</time>
      </trkpt>
      <trkpt lat="45.23978" lon="6.00896">
        <ele>1753.6</ele>
        <time>2015-03-29T08:31:04Z</time>
      </trkpt>
      <trkpt lat="45.23972" lon="6.00906">
        <ele>1756.9</ele>
        <time>2015-03-29T08:31:21Z</time>
      </trkpt>
      <trkpt lat="45.23965" lon="6.00913">
        <ele>1757.5</ele>
        <time>2015-03-29T08:31:35Z</time>
      </trkpt>
      <trkpt lat="45.2396" lon="6.00923">
        <ele>1760.9</ele>
        <time>2015-03-29T08:31:52Z</time>
      </trkpt>
      <trkpt lat="45.23953" lon="6.00929">
        <ele>1764.4</ele>
        <time>2015-03-29T08:32:11Z</time>
      </trkpt>
      <trkpt lat="45.23946" lon="6.00937">
        <ele>1766.8</ele>
        <time>2015-03-29T08:32:34Z</time>
      </trkpt>
      <trkpt lat="45.2394" lon="6.00945">
        <ele>1768.7</ele>
        <time>2015-03-29T08:32:48Z</time>
      </trkpt>
      <trkpt lat="45.23935" lon="6.00955">
        <ele>1770.1</ele>
        <time>2015-03-29T08:33:03Z</time>
      </trkpt>
      <trkpt lat="45.23932" lon="6.00967">
        <ele>1772.9</ele>
        <time>2015-03-29T08:33:18Z</time>
      </trkpt>
      <trkpt lat="45.23928" lon="6.00978">
        <ele>1773.2</ele>
        <time>2015-03-29T08:34:31Z</time>
      </trkpt>
      <trkpt lat="45.23925" lon="6.00989">
        <ele>1774.2</ele>
        <time>2015-03-29T08:34:43Z</time>
      </trkpt>
      <trkpt lat="45.23921" lon="6.00999">
        <ele>1775.2</ele>
        <time>2015-03-29T08:34:54Z</time>
      </trkpt>
      <trkpt lat="45.23917" lon="6.0101">
        <ele>1777.9</ele>
        <time>2015-03-29T08:35:08Z</time>
      </trkpt>
      <trkpt lat="45.23914" lon="6.01022">
        <ele>1779.6</ele>
        <time>2015-03-29T08:35:23Z</time>
      </trkpt>
      <trkpt lat="45.23915" lon="6.01034">
        <ele>1781.7</ele>
        <time>2015-03-29T08:35:41Z</time>
      </trkpt>
      <trkpt lat="45.23906" lon="6.01039">
        <ele>1786.3</ele>
        <time>2015-03-29T08:36:04Z</time>
      </trkpt>
      <trkpt lat="45.23899" lon="6.01045">
        <ele>1789.7</ele>
        <time>2015-03-29T08:36:23Z</time>
      </trkpt>
      <trkpt lat="45.23892" lon="6.01053">
        <ele>1792.7</ele>
        <time>2015-03-29T08:36:43Z</time>
      </trkpt>
      <trkpt lat="45.23884" lon="6.0106">
        <ele>1795.7</ele>
        <time>2015-03-29T08:37:01Z</time>
      </trkpt>
      <trkpt lat="45.23876" lon="6.01066">
        <ele>1799</ele>
        <time>2015-03-29T08:37:22Z</time>
      </trkpt>
      <trkpt lat="45.23869" lon="6.01072">
        <ele>1802.1</ele>
        <time>2015-03-29T08:37:41Z</time>
      </trkpt>
      <trkpt lat="45.23861" lon="6.01076">
        <ele>1803.9</ele>
        <time>2015-03-29T08:37:55Z</time>
      </trkpt>
      <trkpt lat="45.23853" lon="6.01078">
        <ele>1807.8</ele>
        <time>2015-03-29T08:38:19Z</time>
      </trkpt>
      <trkpt lat="45.23844" lon="6.01081">
        <ele>1812.9</ele>
        <time>2015-03-29T08:38:39Z</time>
      </trkpt>
      <trkpt lat="45.23844" lon="6.01081">
        <ele>1812.9</ele>
        <time>2015-03-29T08:38:39Z</time>
      </trkpt>
      <trkpt lat="45.23835" lon="6.0108">
        <ele>1814.3</ele>
        <time>2015-03-29T08:38:56Z</time>
      </trkpt>
      <trkpt lat="45.23827" lon="6.01085">
        <ele>1818</ele>
        <time>2015-03-29T08:39:15Z</time>
      </trkpt>
      <trkpt lat="45.23819" lon="6.01084">
        <ele>1821</ele>
        <time>2015-03-29T08:39:35Z</time>
      </trkpt>
      <trkpt lat="45.2381" lon="6.01082">
        <ele>1824</ele>
        <time>2015-03-29T08:39:51Z</time>
      </trkpt>
      <trkpt lat="45.23802" lon="6.0108">
        <ele>1826.5</ele>
        <time>2015-03-29T08:40:14Z</time>
      </trkpt>
      <trkpt lat="45.23794" lon="6.01075">
        <ele>1829.4</ele>
        <time>2015-03-29T08:40:29Z</time>
      </trkpt>
      <trkpt lat="45.23786" lon="6.01072">
        <ele>1831.6</ele>
        <time>2015-03-29T08:40:44Z</time>
      </trkpt>
      <trkpt lat="45.23778" lon="6.01066">
        <ele>1835.1</ele>
        <time>2015-03-29T08:41:05Z</time>
      </trkpt>
      <trkpt lat="45.23771" lon="6.01059">
        <ele>1838.6</ele>
        <time>2015-03-29T08:41:27Z</time>
      </trkpt>
      <trkpt lat="45.23764" lon="6.01067">
        <ele>1841.6</ele>
        <time>2015-03-29T08:41:44Z</time>
      </trkpt>
      <trkpt lat="45.23755" lon="6.01068">
        <ele>1845.9</ele>
        <time>2015-03-29T08:42:11Z</time>
      </trkpt>
      <trkpt lat="45.23748" lon="6.01064">
        <ele>1848.7</ele>
        <time>2015-03-29T08:42:28Z</time>
      </trkpt>
      <trkpt lat="45.23746" lon="6.01052">
        <ele>1850.5</ele>
        <time>2015-03-29T08:42:42Z</time>
      </trkpt>
      <trkpt lat="45.23737" lon="6.01049">
        <ele>1855</ele>
        <time>2015-03-29T08:43:03Z</time>
      </trkpt>
      <trkpt lat="45.23731" lon="6.01057">
        <ele>1855.6</ele>
        <time>2015-03-29T08:43:18Z</time>
      </trkpt>
      <trkpt lat="45.23723" lon="6.01062">
        <ele>1860.5</ele>
        <time>2015-03-29T08:43:33Z</time>
      </trkpt>
      <trkpt lat="45.23715" lon="6.01067">
        <ele>1863.4</ele>
        <time>2015-03-29T08:43:54Z</time>
      </trkpt>
      <trkpt lat="45.23707" lon="6.01072">
        <ele>1865.4</ele>
        <time>2015-03-29T08:44:11Z</time>
      </trkpt>
      <trkpt lat="45.23699" lon="6.01073">
        <ele>1868.1</ele>
        <time>2015-03-29T08:44:26Z</time>
      </trkpt>
      <trkpt lat="45.23691" lon="6.01069">
        <ele>1871.2</ele>
        <time>2015-03-29T08:44:48Z</time>
      </trkpt>
      <trkpt lat="45.23685" lon="6.01078">
        <ele>1874.9</ele>
        <time>2015-03-29T08:45:17Z</time>
      </trkpt>
      <trkpt lat="45.23689" lon="6.01089">
        <ele>1877.6</ele>
        <time>2015-03-29T08:45:35Z</time>
      </trkpt>
      <trkpt lat="45.23696" lon="6.01097">
        <ele>1877.5</ele>
        <time>2015-03-29T08:45:50Z</time>
      </trkpt>
      <trkpt lat="45.23701" lon="6.01106">
        <ele>1882.3</ele>
        <time>2015-03-29T08:46:05Z</time>
      </trkpt>
      <trkpt lat="45.23707" lon="6.01116">
        <ele>1884.3</ele>
        <time>2015-03-29T08:46:23Z</time>
      </trkpt>
      <trkpt lat="45.23713" lon="6.01125">
        <ele>1886.4</ele>
        <time>2015-03-29T08:46:40Z</time>
      </trkpt>
      <trkpt lat="45.23718" lon="6.01135">
        <ele>1890.7</ele>
        <time>2015-03-29T08:46:55Z</time>
      </trkpt>
      <trkpt lat="45.2371" lon="6.01139">
        <ele>1893.7</ele>
        <time>2015-03-29T08:47:33Z</time>
      </trkpt>
      <trkpt lat="45.23701" lon="6.0114">
        <ele>1897.7</ele>
        <time>2015-03-29T08:47:53Z</time>
      </trkpt>
      <trkpt lat="45.23692" lon="6.01142">
        <ele>1900.2</ele>
        <time>2015-03-29T08:48:13Z</time>
      </trkpt>
      <trkpt lat="45.23684" lon="6.01145">
        <ele>1902.3</ele>
        <time>2015-03-29T08:48:29Z</time>
      </trkpt>
      <trkpt lat="45.23675" lon="6.01147">
        <ele>1906.3</ele>
        <time>2015-03-29T08:48:49Z</time>
      </trkpt>
      <trkpt lat="45.23667" lon="6.01149">
        <ele>1907.3</ele>
        <time>2015-03-29T08:49:01Z</time>
      </trkpt>
      <trkpt lat="45.23658" lon="6.01152">
        <ele>1909.1</ele>
        <time>2015-03-29T08:50:12Z</time>
      </trkpt>
      <trkpt lat="45.23649" lon="6.01151">
        <ele>1914.3</ele>
        <time>2015-03-29T08:51:35Z</time>
      </trkpt>
      <trkpt lat="45.23641" lon="6.01154">
        <ele>1917.5</ele>
        <time>2015-03-29T08:51:53Z</time>
      </trkpt>
      <trkpt lat="45.23632" lon="6.01156">
        <ele>1918.3</ele>
        <time>2015-03-29T08:52:06Z</time>
      </trkpt>
      <trkpt lat="45.23624" lon="6.01157">
        <ele>1921.7</ele>
        <time>2015-03-29T08:52:25Z</time>
      </trkpt>
      <trkpt lat="45.23616" lon="6.01151">
        <ele>1923.7</ele>
        <time>2015-03-29T08:52:41Z</time>
      </trkpt>
      <trkpt lat="45.2361" lon="6.01143">
        <ele>1925.6</ele>
        <time>2015-03-29T08:52:57Z</time>
      </trkpt>
      <trkpt lat="45.23609" lon="6.01155">
        <ele>1928.5</ele>
        <time>2015-03-29T08:53:21Z</time>
      </trkpt>
      <trkpt lat="45.2361" lon="6.01167">
        <ele>1932.9</ele>
        <time>2015-03-29T08:53:41Z</time>
      </trkpt>
      <trkpt lat="45.23613" lon="6.01177">
        <ele>1932.6</ele>
        <time>2015-03-29T08:53:56Z</time>
      </trkpt>
      <trkpt lat="45.23615" lon="6.01189">
        <ele>1936.2</ele>
        <time>2015-03-29T08:54:12Z</time>
      </trkpt>
      <trkpt lat="45.2362" lon="6.012">
        <ele>1938.9</ele>
        <time>2015-03-29T08:55:27Z</time>
      </trkpt>
      <trkpt lat="45.23624" lon="6.0121">
        <ele>1941.6</ele>
        <time>2015-03-29T08:55:43Z</time>
      </trkpt>
      <trkpt lat="45.23625" lon="6.01222">
        <ele>1944.8</ele>
        <time>2015-03-29T08:56:00Z</time>
      </trkpt>
      <trkpt lat="45.23629" lon="6.01233">
        <ele>1945.9</ele>
        <time>2015-03-29T08:56:10Z</time>
      </trkpt>
      <trkpt lat="45.23629" lon="6.01245">
        <ele>1945.5</ele>
        <time>2015-03-29T08:56:21Z</time>
      </trkpt>
      <trkpt lat="45.23629" lon="6.01257">
        <ele>1946.5</ele>
        <time>2015-03-29T08:56:31Z</time>
      </trkpt>
      <trkpt lat="45.23631" lon="6.01269">
        <ele>1947</ele>
        <time>2015-03-29T08:56:50Z</time>
      </trkpt>
      <trkpt lat="45.23637" lon="6.01275">
        <ele>1949.4</ele>
        <time>2015-03-29T08:57:58Z</time>
      </trkpt>
      <trkpt lat="45.23645" lon="6.01277">
        <ele>1952.7</ele>
        <time>2015-03-29T08:58:15Z</time>
      </trkpt>
      <trkpt lat="45.23651" lon="6.01287">
        <ele>1954.9</ele>
        <time>2015-03-29T09:00:09Z</time>
      </trkpt>
      <trkpt lat="45.23648" lon="6.01298">
        <ele>1956.9</ele>
        <time>2015-03-29T09:01:14Z</time>
      </trkpt>
      <trkpt lat="45.23648" lon="6.0131">
        <ele>1960.1</ele>
        <time>2015-03-29T09:01:56Z</time>
      </trkpt>
      <trkpt lat="45.23647" lon="6.01322">
        <ele>1961.9</ele>
        <time>2015-03-29T09:02:08Z</time>
      </trkpt>
      <trkpt lat="45.23649" lon="6.01333">
        <ele>1963.8</ele>
        <time>2015-03-29T09:02:35Z</time>
      </trkpt>
      <trkpt lat="45.23649" lon="6.01346">
        <ele>1966.1</ele>
        <time>2015-03-29T09:02:50Z</time>
      </trkpt>
      <trkpt lat="45.2365" lon="6.01357">
        <ele>1967.3</ele>
        <time>2015-03-29T09:03:04Z</time>
      </trkpt>
      <trkpt lat="45.23653" lon="6.01369">
        <ele>1969.1</ele>
        <time>2015-03-29T09:03:18Z</time>
      </trkpt>
      <trkpt lat="45.23657" lon="6.0138">
        <ele>1971.8</ele>
        <time>2015-03-29T09:03:35Z</time>
      </trkpt>
      <trkpt lat="45.2366" lon="6.01391">
        <ele>1973.1</ele>
        <time>2015-03-29T09:03:49Z</time>
      </trkpt>
      <trkpt lat="45.23664" lon="6.01401">
        <ele>1975.8</ele>
        <time>2015-03-29T09:04:05Z</time>
      </trkpt>
      <trkpt lat="45.23657" lon="6.01407">
        <ele>1980.2</ele>
        <time>2015-03-29T09:04:36Z</time>
      </trkpt>
      <trkpt lat="45.23649" lon="6.01403">
        <ele>1982.6</ele>
        <time>2015-03-29T09:04:54Z</time>
      </trkpt>
      <trkpt lat="45.2364" lon="6.01401">
        <ele>1985.3</ele>
        <time>2015-03-29T09:05:10Z</time>
      </trkpt>
      <trkpt lat="45.23632" lon="6.01398">
        <ele>1986.7</ele>
        <time>2015-03-29T09:05:27Z</time>
      </trkpt>
      <trkpt lat="45.23623" lon="6.01395">
        <ele>1989.3</ele>
        <time>2015-03-29T09:05:44Z</time>
      </trkpt>
      <trkpt lat="45.23623" lon="6.01408">
        <ele>1994.5</ele>
        <time>2015-03-29T09:06:32Z</time>
      </trkpt>
      <trkpt lat="45.23614" lon="6.0141">
        <ele>1998.7</ele>
        <time>2015-03-29T09:07:06Z</time>
      </trkpt>
      <trkpt lat="45.23605" lon="6.01409">
        <ele>2002.4</ele>
        <time>2015-03-29T09:07:25Z</time>
      </trkpt>
      <trkpt lat="45.23606" lon="6.01422">
        <ele>2006</ele>
        <time>2015-03-29T09:08:00Z</time>
      </trkpt>
      <trkpt lat="45.23611" lon="6.01432">
        <ele>2008.7</ele>
        <time>2015-03-29T09:08:17Z</time>
      </trkpt>
      <trkpt lat="45.23604" lon="6.01438">
        <ele>2014.5</ele>
        <time>2015-03-29T09:08:52Z</time>
      </trkpt>
      <trkpt lat="45.23595" lon="6.01439">
        <ele>2016.6</ele>
        <time>2015-03-29T09:09:05Z</time>
      </trkpt>
      <trkpt lat="45.23587" lon="6.01433">
        <ele>2018.2</ele>
        <time>2015-03-29T09:09:23Z</time>
      </trkpt>
      <trkpt lat="45.23582" lon="6.01424">
        <ele>2020.9</ele>
        <time>2015-03-29T09:09:41Z</time>
      </trkpt>
      <trkpt lat="45.23579" lon="6.01436">
        <ele>2024.9</ele>
        <time>2015-03-29T09:10:07Z</time>
      </trkpt>
      <trkpt lat="45.23578" lon="6.01448">
        <ele>2027.4</ele>
        <time>2015-03-29T09:10:27Z</time>
      </trkpt>
      <trkpt lat="45.23578" lon="6.0146">
        <ele>2031.1</ele>
        <time>2015-03-29T09:10:47Z</time>
      </trkpt>
      <trkpt lat="45.2357" lon="6.01457">
        <ele>2033.4</ele>
        <time>2015-03-29T09:11:09Z</time>
      </trkpt>
      <trkpt lat="45.23564" lon="6.01448">
        <ele>2035.9</ele>
        <time>2015-03-29T09:11:25Z</time>
      </trkpt>
      <trkpt lat="45.23558" lon="6.01456">
        <ele>2040</ele>
        <time>2015-03-29T09:11:57Z</time>
      </trkpt>
      <trkpt lat="45.23557" lon="6.01468">
        <ele>2041.8</ele>
        <time>2015-03-29T09:12:11Z</time>
      </trkpt>
      <trkpt lat="45.23549" lon="6.01467">
        <ele>2048.2</ele>
        <time>2015-03-29T09:12:55Z</time>
      </trkpt>
      <trkpt lat="45.23541" lon="6.01474">
        <ele>2053.7</ele>
        <time>2015-03-29T09:13:40Z</time>
      </trkpt>
      <trkpt lat="45.23541" lon="6.01486">
        <ele>2056.9</ele>
        <time>2015-03-29T09:13:58Z</time>
      </trkpt>
      <trkpt lat="45.23535" lon="6.01496">
        <ele>2062.4</ele>
        <time>2015-03-29T09:14:28Z</time>
      </trkpt>
      <trkpt lat="45.23527" lon="6.01495">
        <ele>2065.9</ele>
        <time>2015-03-29T09:15:06Z</time>
      </trkpt>
      <trkpt lat="45.23519" lon="6.01491">
        <ele>2068</ele>
        <time>2015-03-29T09:15:22Z</time>
      </trkpt>
      <trkpt lat="45.23515" lon="6.01503">
        <ele>2073.1</ele>
        <time>2015-03-29T09:15:47Z</time>
      </trkpt>
      <trkpt lat="45.23517" lon="6.01515">
        <ele>2074.9</ele>
        <time>2015-03-29T09:16:22Z</time>
      </trkpt>
      <trkpt lat="45.23522" lon="6.01525">
        <ele>2078.4</ele>
        <time>2015-03-29T09:17:03Z</time>
      </trkpt>
      <trkpt lat="45.23514" lon="6.01524">
        <ele>2077.6</ele>
        <time>2015-03-29T09:18:24Z</time>
      </trkpt>
      <trkpt lat="45.23506" lon="6.0152">
        <ele>2080.6</ele>
        <time>2015-03-29T09:18:37Z</time>
      </trkpt>
      <trkpt lat="45.23499" lon="6.01512">
        <ele>2083.6</ele>
        <time>2015-03-29T09:18:57Z</time>
      </trkpt>
      <trkpt lat="45.23494" lon="6.01522">
        <ele>2094.1</ele>
        <time>2015-03-29T09:20:29Z</time>
      </trkpt>
      <trkpt lat="45.23491" lon="6.01534">
        <ele>2094.9</ele>
        <time>2015-03-29T09:20:46Z</time>
      </trkpt>
      <trkpt lat="45.23492" lon="6.01546">
        <ele>2097.6</ele>
        <time>2015-03-29T09:21:09Z</time>
      </trkpt>
      <trkpt lat="45.23491" lon="6.01558">
        <ele>2098.5</ele>
        <time>2015-03-29T09:21:26Z</time>
      </trkpt>
      <trkpt lat="45.23496" lon="6.01569">
        <ele>2103.7</ele>
        <time>2015-03-29T09:21:59Z</time>
      </trkpt>
      <trkpt lat="45.23487" lon="6.01572">
        <ele>2105.8</ele>
        <time>2015-03-29T09:22:17Z</time>
      </trkpt>
      <trkpt lat="45.2348" lon="6.01565">
        <ele>2108.2</ele>
        <time>2015-03-29T09:22:33Z</time>
      </trkpt>
      <trkpt lat="45.2348" lon="6.01565">
        <ele>2108.2</ele>
        <time>2015-03-29T09:22:33Z</time>
      </trkpt>
      <trkpt lat="45.23472" lon="6.01559">
        <ele>2111</ele>
        <time>2015-03-29T09:22:50Z</time>
      </trkpt>
      <trkpt lat="45.23464" lon="6.01564">
        <ele>2113.8</ele>
        <time>2015-03-29T09:23:10Z</time>
      </trkpt>
      <trkpt lat="45.2346" lon="6.01576">
        <ele>2118.3</ele>
        <time>2015-03-29T09:23:33Z</time>
      </trkpt>
      <trkpt lat="45.23467" lon="6.01583">
        <ele>2121.3</ele>
        <time>2015-03-29T09:24:32Z</time>
      </trkpt>
      <trkpt lat="45.23463" lon="6.01593">
        <ele>2122.1</ele>
        <time>2015-03-29T09:24:54Z</time>
      </trkpt>
      <trkpt lat="45.23463" lon="6.01605">
        <ele>2124.5</ele>
        <time>2015-03-29T09:25:06Z</time>
      </trkpt>
      <trkpt lat="45.23464" lon="6.01617">
        <ele>2124.1</ele>
        <time>2015-03-29T09:25:19Z</time>
      </trkpt>
      <trkpt lat="45.23465" lon="6.0163">
        <ele>2128.3</ele>
        <time>2015-03-29T09:25:36Z</time>
      </trkpt>
      <trkpt lat="45.23465" lon="6.01642">
        <ele>2130.2</ele>
        <time>2015-03-29T09:25:52Z</time>
      </trkpt>
      <trkpt lat="45.23466" lon="6.01655">
        <ele>2132.4</ele>
        <time>2015-03-29T09:26:06Z</time>
      </trkpt>
      <trkpt lat="45.23467" lon="6.01667">
        <ele>2134.3</ele>
        <time>2015-03-29T09:26:21Z</time>
      </trkpt>
      <trkpt lat="45.23472" lon="6.01678">
        <ele>2136.9</ele>
        <time>2015-03-29T09:26:39Z</time>
      </trkpt>
      <trkpt lat="45.23477" lon="6.01688">
        <ele>2138.1</ele>
        <time>2015-03-29T09:26:54Z</time>
      </trkpt>
      <trkpt lat="45.23483" lon="6.01697">
        <ele>2141.7</ele>
        <time>2015-03-29T09:27:11Z</time>
      </trkpt>
      <trkpt lat="45.2349" lon="6.01705">
        <ele>2143.4</ele>
        <time>2015-03-29T09:27:26Z</time>
      </trkpt>
      <trkpt lat="45.23497" lon="6.01712">
        <ele>2145.6</ele>
        <time>2015-03-29T09:27:40Z</time>
      </trkpt>
      <trkpt lat="45.23502" lon="6.01722">
        <ele>2149.7</ele>
        <time>2015-03-29T09:27:55Z</time>
      </trkpt>
      <trkpt lat="45.23505" lon="6.01733">
        <ele>2150.4</ele>
        <time>2015-03-29T09:28:10Z</time>
      </trkpt>
      <trkpt lat="45.23509" lon="6.01744">
        <ele>2152.1</ele>
        <time>2015-03-29T09:28:24Z</time>
      </trkpt>
      <trkpt lat="45.23513" lon="6.01754">
        <ele>2153.1</ele>
        <time>2015-03-29T09:28:40Z</time>
      </trkpt>
      <trkpt lat="45.23516" lon="6.01766">
        <ele>2155.7</ele>
        <time>2015-03-29T09:29:01Z</time>
      </trkpt>
      <trkpt lat="45.23519" lon="6.01777">
        <ele>2157.4</ele>
        <time>2015-03-29T09:29:19Z</time>
      </trkpt>
      <trkpt lat="45.23524" lon="6.01788">
        <ele>2160.7</ele>
        <time>2015-03-29T09:29:44Z</time>
      </trkpt>
      <trkpt lat="45.23527" lon="6.01799">
        <ele>2163.5</ele>
        <time>2015-03-29T09:30:24Z</time>
      </trkpt>
      <trkpt lat="45.23531" lon="6.0181">
        <ele>2166.6</ele>
        <time>2015-03-29T09:30:41Z</time>
      </trkpt>
      <trkpt lat="45.23535" lon="6.0182">
        <ele>2169</ele>
        <time>2015-03-29T09:30:56Z</time>
      </trkpt>
      <trkpt lat="45.2354" lon="6.01829">
        <ele>2171.6</ele>
        <time>2015-03-29T09:31:12Z</time>
      </trkpt>
      <trkpt lat="45.23546" lon="6.01838">
        <ele>2173.5</ele>
        <time>2015-03-29T09:31:27Z</time>
      </trkpt>
      <trkpt lat="45.23553" lon="6.01846">
        <ele>2175.6</ele>
        <time>2015-03-29T09:31:43Z</time>
      </trkpt>
      <trkpt lat="45.23559" lon="6.01854">
        <ele>2177.4</ele>
        <time>2015-03-29T09:31:58Z</time>
      </trkpt>
      <trkpt lat="45.23566" lon="6.01862">
        <ele>2180.5</ele>
        <time>2015-03-29T09:32:14Z</time>
      </trkpt>
      <trkpt lat="45.23572" lon="6.0187">
        <ele>2182.5</ele>
        <time>2015-03-29T09:32:28Z</time>
      </trkpt>
      <trkpt lat="45.23578" lon="6.01878">
        <ele>2182.8</ele>
        <time>2015-03-29T09:32:43Z</time>
      </trkpt>
      <trkpt lat="45.23585" lon="6.01884">
        <ele>2185.1</ele>
        <time>2015-03-29T09:32:58Z</time>
      </trkpt>
      <trkpt lat="45.23593" lon="6.01891">
        <ele>2187</ele>
        <time>2015-03-29T09:33:13Z</time>
      </trkpt>
      <trkpt lat="45.236" lon="6.01897">
        <ele>2187.9</ele>
        <time>2015-03-29T09:33:26Z</time>
      </trkpt>
      <trkpt lat="45.23608" lon="6.01901">
        <ele>2190.3</ele>
        <time>2015-03-29T09:33:56Z</time>
      </trkpt>
      <trkpt lat="45.23615" lon="6.01908">
        <ele>2191.4</ele>
        <time>2015-03-29T09:34:13Z</time>
      </trkpt>
      <trkpt lat="45.23621" lon="6.01917">
        <ele>2193.5</ele>
        <time>2015-03-29T09:34:30Z</time>
      </trkpt>
      <trkpt lat="45.23627" lon="6.01927">
        <ele>2196.9</ele>
        <time>2015-03-29T09:34:45Z</time>
      </trkpt>
      <trkpt lat="45.23635" lon="6.01931">
        <ele>2196.1</ele>
        <time>2015-03-29T09:35:37Z</time>
      </trkpt>
      <trkpt lat="45.23638" lon="6.01943">
        <ele>2198.3</ele>
        <time>2015-03-29T09:35:52Z</time>
      </trkpt>
      <trkpt lat="45.23643" lon="6.01952">
        <ele>2200.1</ele>
        <time>2015-03-29T09:36:07Z</time>
      </trkpt>
      <trkpt lat="45.2365" lon="6.01961">
        <ele>2202.3</ele>
        <time>2015-03-29T09:36:22Z</time>
      </trkpt>
      <trkpt lat="45.23642" lon="6.01967">
        <ele>2207</ele>
        <time>2015-03-29T09:36:53Z</time>
      </trkpt>
      <trkpt lat="45.23634" lon="6.01971">
        <ele>2209</ele>
        <time>2015-03-29T09:37:08Z</time>
      </trkpt>
      <trkpt lat="45.23626" lon="6.01973">
        <ele>2210.8</ele>
        <time>2015-03-29T09:37:23Z</time>
      </trkpt>
      <trkpt lat="45.23618" lon="6.01977">
        <ele>2213.3</ele>
        <time>2015-03-29T09:37:37Z</time>
      </trkpt>
      <trkpt lat="45.2361" lon="6.01979">
        <ele>2215.6</ele>
        <time>2015-03-29T09:37:51Z</time>
      </trkpt>
      <trkpt lat="45.23601" lon="6.01978">
        <ele>2217.5</ele>
        <time>2015-03-29T09:38:08Z</time>
      </trkpt>
      <trkpt lat="45.23604" lon="6.0199">
        <ele>2220.7</ele>
        <time>2015-03-29T09:38:42Z</time>
      </trkpt>
      <trkpt lat="45.2361" lon="6.02">
        <ele>2223.9</ele>
        <time>2015-03-29T09:38:59Z</time>
      </trkpt>
      <trkpt lat="45.23616" lon="6.02007">
        <ele>2225.6</ele>
        <time>2015-03-29T09:39:17Z</time>
      </trkpt>
      <trkpt lat="45.23624" lon="6.02013">
        <ele>2228.4</ele>
        <time>2015-03-29T09:39:32Z</time>
      </trkpt>
      <trkpt lat="45.2363" lon="6.02022">
        <ele>2229.2</ele>
        <time>2015-03-29T09:39:49Z</time>
      </trkpt>
      <trkpt lat="45.23637" lon="6.0203">
        <ele>2231.3</ele>
        <time>2015-03-29T09:40:06Z</time>
      </trkpt>
      <trkpt lat="45.23644" lon="6.02036">
        <ele>2234.7</ele>
        <time>2015-03-29T09:40:24Z</time>
      </trkpt>
      <trkpt lat="45.2365" lon="6.02045">
        <ele>2235</ele>
        <time>2015-03-29T09:40:40Z</time>
      </trkpt>
      <trkpt lat="45.23657" lon="6.02052">
        <ele>2236.9</ele>
        <time>2015-03-29T09:40:54Z</time>
      </trkpt>
      <trkpt lat="45.23664" lon="6.0206">
        <ele>2238.1</ele>
        <time>2015-03-29T09:41:27Z</time>
      </trkpt>
      <trkpt lat="45.23668" lon="6.02071">
        <ele>2238.5</ele>
        <time>2015-03-29T09:42:49Z</time>
      </trkpt>
      <trkpt lat="45.23675" lon="6.02079">
        <ele>2240.9</ele>
        <time>2015-03-29T09:43:01Z</time>
      </trkpt>
      <trkpt lat="45.23682" lon="6.02085">
        <ele>2242.2</ele>
        <time>2015-03-29T09:43:15Z</time>
      </trkpt>
      <trkpt lat="45.2369" lon="6.02091">
        <ele>2244.3</ele>
        <time>2015-03-29T09:43:28Z</time>
      </trkpt>
      <trkpt lat="45.23697" lon="6.02098">
        <ele>2246.7</ele>
        <time>2015-03-29T09:43:42Z</time>
      </trkpt>
      <trkpt lat="45.23705" lon="6.02102">
        <ele>2248.3</ele>
        <time>2015-03-29T09:43:55Z</time>
      </trkpt>
      <trkpt lat="45.23713" lon="6.02107">
        <ele>2250.3</ele>
        <time>2015-03-29T09:44:11Z</time>
      </trkpt>
      <trkpt lat="45.2372" lon="6.02113">
        <ele>2252.4</ele>
        <time>2015-03-29T09:44:27Z</time>
      </trkpt>
      <trkpt lat="45.23724" lon="6.02124">
        <ele>2254</ele>
        <time>2015-03-29T09:44:43Z</time>
      </trkpt>
      <trkpt lat="45.23727" lon="6.02135">
        <ele>2256.7</ele>
        <time>2015-03-29T09:44:57Z</time>
      </trkpt>
      <trkpt lat="45.23729" lon="6.02146">
        <ele>2259.4</ele>
        <time>2015-03-29T09:45:13Z</time>
      </trkpt>
      <trkpt lat="45.23731" lon="6.02158">
        <ele>2263.1</ele>
        <time>2015-03-29T09:45:45Z</time>
      </trkpt>
      <trkpt lat="45.23738" lon="6.02167">
        <ele>2265.5</ele>
        <time>2015-03-29T09:46:24Z</time>
      </trkpt>
      <trkpt lat="45.23741" lon="6.02179">
        <ele>2267</ele>
        <time>2015-03-29T09:55:02Z</time>
      </trkpt>
      <trkpt lat="45.23734" lon="6.02184">
        <ele>2268.6</ele>
        <time>2015-03-29T09:55:30Z</time>
      </trkpt>
      <trkpt lat="45.23727" lon="6.0219">
        <ele>2271.1</ele>
        <time>2015-03-29T09:55:48Z</time>
      </trkpt>
      <trkpt lat="45.23719" lon="6.02194">
        <ele>2272.9</ele>
        <time>2015-03-29T09:56:14Z</time>
      </trkpt>
      <trkpt lat="45.23711" lon="6.02197">
        <ele>2277.1</ele>
        <time>2015-03-29T09:56:43Z</time>
      </trkpt>
      <trkpt lat="45.23714" lon="6.02209">
        <ele>2283.8</ele>
        <time>2015-03-29T09:57:52Z</time>
      </trkpt>
      <trkpt lat="45.23719" lon="6.0222">
        <ele>2287.3</ele>
        <time>2015-03-29T09:59:16Z</time>
      </trkpt>
      <trkpt lat="45.23714" lon="6.02231">
        <ele>2291.5</ele>
        <time>2015-03-29T09:59:56Z</time>
      </trkpt>
      <trkpt lat="45.23707" lon="6.02238">
        <ele>2294.3</ele>
        <time>2015-03-29T10:00:33Z</time>
      </trkpt>
      <trkpt lat="45.23699" lon="6.02239">
        <ele>2296.8</ele>
        <time>2015-03-29T10:01:07Z</time>
      </trkpt>
      <trkpt lat="45.23691" lon="6.02241">
        <ele>2300.1</ele>
        <time>2015-03-29T10:01:42Z</time>
      </trkpt>
      <trkpt lat="45.23691" lon="6.02254">
        <ele>2307.9</ele>
        <time>2015-03-29T10:03:16Z</time>
      </trkpt>
      <trkpt lat="45.23683" lon="6.02257">
        <ele>2311.2</ele>
        <time>2015-03-29T10:03:56Z</time>
      </trkpt>
      <trkpt lat="45.23675" lon="6.02254">
        <ele>2315.5</ele>
        <time>2015-03-29T10:06:14Z</time>
      </trkpt>
      <trkpt lat="45.23668" lon="6.02263">
        <ele>2319.8</ele>
        <time>2015-03-29T10:06:58Z</time>
      </trkpt>
      <trkpt lat="45.23661" lon="6.02269">
        <ele>2325.1</ele>
        <time>2015-03-29T10:08:19Z</time>
      </trkpt>
      <trkpt lat="45.23654" lon="6.02276">
        <ele>2336</ele>
        <time>2015-03-29T10:10:52Z</time>
      </trkpt>
      <trkpt lat="45.23645" lon="6.02274">
        <ele>2347.6</ele>
        <time>2015-03-29T10:14:12Z</time>
      </trkpt>
      <trkpt lat="45.23636" lon="6.02277">
        <ele>2356.1</ele>
        <time>2015-03-29T10:15:48Z</time>
      </trkpt>
      <trkpt lat="45.23631" lon="6.02288">
        <ele>2366.4</ele>
        <time>2015-03-29T10:17:52Z</time>
      </trkpt>
      <trkpt lat="45.23625" lon="6.02296">
        <ele>2376.1</ele>
        <time>2015-03-29T10:19:49Z</time>
      </trkpt>
      <trkpt lat="45.23621" lon="6.02307">
        <ele>2381.2</ele>
        <time>2015-03-29T10:21:12Z</time>
      </trkpt>
      <trkpt lat="45.23613" lon="6.02313">
        <ele>2395.2</ele>
        <time>2015-03-29T10:23:39Z</time>
      </trkpt>
      <trkpt lat="45.23605" lon="6.02312">
        <ele>2401.2</ele>
        <time>2015-03-29T10:24:34Z</time>
      </trkpt>
      <trkpt lat="45.23597" lon="6.02307">
        <ele>2412.1</ele>
        <time>2015-03-29T10:26:36Z</time>
      </trkpt>
      <trkpt lat="45.23591" lon="6.02316">
        <ele>2411.7</ele>
        <time>2015-03-29T10:32:03Z</time>
      </trkpt>
      <trkpt lat="45.23598" lon="6.02321">
        <ele>2406.9</ele>
        <time>2015-03-29T10:44:09Z</time>
      </trkpt>
      <trkpt lat="45.23604" lon="6.02327">
        <ele>2406.9</ele>
        <time>2015-03-29T10:44:12Z</time>
      </trkpt>
      <trkpt lat="45.23604" lon="6.02339">
        <ele>2405.2</ele>
        <time>2015-03-29T10:44:18Z</time>
      </trkpt>
      <trkpt lat="45.23599" lon="6.02348">
        <ele>2393.2</ele>
        <time>2015-03-29T10:44:53Z</time>
      </trkpt>
      <trkpt lat="45.23592" lon="6.02349">
        <ele>2391.8</ele>
        <time>2015-03-29T10:44:58Z</time>
      </trkpt>
      <trkpt lat="45.23586" lon="6.02352">
        <ele>2389.9</ele>
        <time>2015-03-29T10:45:02Z</time>
      </trkpt>
      <trkpt lat="45.23579" lon="6.02348">
        <ele>2388.1</ele>
        <time>2015-03-29T10:45:04Z</time>
      </trkpt>
      <trkpt lat="45.23572" lon="6.02344">
        <ele>2385.6</ele>
        <time>2015-03-29T10:45:06Z</time>
      </trkpt>
      <trkpt lat="45.23569" lon="6.02354">
        <ele>2381.3</ele>
        <time>2015-03-29T10:45:10Z</time>
      </trkpt>
      <trkpt lat="45.23564" lon="6.02362">
        <ele>2375.4</ele>
        <time>2015-03-29T10:45:14Z</time>
      </trkpt>
      <trkpt lat="45.2356" lon="6.02366">
        <ele>2374.1</ele>
        <time>2015-03-29T10:45:15Z</time>
      </trkpt>
      <trkpt lat="45.23551" lon="6.02363">
        <ele>2371.2</ele>
        <time>2015-03-29T10:45:17Z</time>
      </trkpt>
      <trkpt lat="45.23548" lon="6.02374">
        <ele>2364.6</ele>
        <time>2015-03-29T10:45:21Z</time>
      </trkpt>
      <trkpt lat="45.23544" lon="6.02383">
        <ele>2358.9</ele>
        <time>2015-03-29T10:45:25Z</time>
      </trkpt>
      <trkpt lat="45.23535" lon="6.02385">
        <ele>2353.7</ele>
        <time>2015-03-29T10:45:28Z</time>
      </trkpt>
      <trkpt lat="45.23529" lon="6.02394">
        <ele>2346.4</ele>
        <time>2015-03-29T10:45:33Z</time>
      </trkpt>
      <trkpt lat="45.23527" lon="6.02403">
        <ele>2332.8</ele>
        <time>2015-03-29T10:45:50Z</time>
      </trkpt>
      <trkpt lat="45.23518" lon="6.02406">
        <ele>2330.9</ele>
        <time>2015-03-29T10:45:55Z</time>
      </trkpt>
      <trkpt lat="45.23513" lon="6.02397">
        <ele>2323.7</ele>
        <time>2015-03-29T10:48:30Z</time>
      </trkpt>
      <trkpt lat="45.23508" lon="6.02388">
        <ele>2323</ele>
        <time>2015-03-29T10:48:33Z</time>
      </trkpt>
      <trkpt lat="45.235" lon="6.02392">
        <ele>2318.1</ele>
        <time>2015-03-29T10:48:44Z</time>
      </trkpt>
      <trkpt lat="45.23509" lon="6.02393">
        <ele>2315.8</ele>
        <time>2015-03-29T10:49:48Z</time>
      </trkpt>
      <trkpt lat="45.23517" lon="6.02398">
        <ele>2323</ele>
        <time>2015-03-29T10:51:15Z</time>
      </trkpt>
      <trkpt lat="45.23523" lon="6.02405">
        <ele>2327</ele>
        <time>2015-03-29T10:52:06Z</time>
      </trkpt>
      <trkpt lat="45.23531" lon="6.02409">
        <ele>2326.1</ele>
        <time>2015-03-29T10:54:55Z</time>
      </trkpt>
      <trkpt lat="45.23539" lon="6.02416">
        <ele>2325</ele>
        <time>2015-03-29T10:55:00Z</time>
      </trkpt>
      <trkpt lat="45.23543" lon="6.02426">
        <ele>2325.4</ele>
        <time>2015-03-29T10:55:06Z</time>
      </trkpt>
      <trkpt lat="45.23541" lon="6.02437">
        <ele>2323.1</ele>
        <time>2015-03-29T10:55:10Z</time>
      </trkpt>
      <trkpt lat="45.23547" lon="6.02441">
        <ele>2321</ele>
        <time>2015-03-29T10:55:12Z</time>
      </trkpt>
      <trkpt lat="45.23554" lon="6.02444">
        <ele>2317.8</ele>
        <time>2015-03-29T10:55:15Z</time>
      </trkpt>
      <trkpt lat="45.23554" lon="6.02444">
        <ele>2317.8</ele>
        <time>2015-03-29T10:55:15Z</time>
      </trkpt>
      <trkpt lat="45.23559" lon="6.02455">
        <ele>2314.6</ele>
        <time>2015-03-29T10:55:19Z</time>
      </trkpt>
      <trkpt lat="45.23559" lon="6.02464">
        <ele>2311.8</ele>
        <time>2015-03-29T10:55:22Z</time>
      </trkpt>
      <trkpt lat="45.23562" lon="6.02476">
        <ele>2307.6</ele>
        <time>2015-03-29T10:55:25Z</time>
      </trkpt>
      <trkpt lat="45.23559" lon="6.02488">
        <ele>2301</ele>
        <time>2015-03-29T10:55:29Z</time>
      </trkpt>
      <trkpt lat="45.23558" lon="6.02497">
        <ele>2297.5</ele>
        <time>2015-03-29T10:55:31Z</time>
      </trkpt>
      <trkpt lat="45.23554" lon="6.02506">
        <ele>2291.4</ele>
        <time>2015-03-29T10:55:34Z</time>
      </trkpt>
      <trkpt lat="45.23553" lon="6.02517">
        <ele>2285.9</ele>
        <time>2015-03-29T10:55:37Z</time>
      </trkpt>
      <trkpt lat="45.23551" lon="6.02523">
        <ele>2282.6</ele>
        <time>2015-03-29T10:55:39Z</time>
      </trkpt>
      <trkpt lat="45.23544" lon="6.02532">
        <ele>2277.5</ele>
        <time>2015-03-29T10:55:42Z</time>
      </trkpt>
      <trkpt lat="45.23538" lon="6.02538">
        <ele>2272.9</ele>
        <time>2015-03-29T10:55:45Z</time>
      </trkpt>
      <trkpt lat="45.23531" lon="6.02545">
        <ele>2267.4</ele>
        <time>2015-03-29T10:55:48Z</time>
      </trkpt>
      <trkpt lat="45.23524" lon="6.02539">
        <ele>2262.4</ele>
        <time>2015-03-29T10:55:51Z</time>
      </trkpt>
      <trkpt lat="45.23516" lon="6.0254">
        <ele>2257.9</ele>
        <time>2015-03-29T10:55:54Z</time>
      </trkpt>
      <trkpt lat="45.23507" lon="6.02538">
        <ele>2255.3</ele>
        <time>2015-03-29T10:55:56Z</time>
      </trkpt>
      <trkpt lat="45.23502" lon="6.02537">
        <ele>2252.9</ele>
        <time>2015-03-29T10:55:58Z</time>
      </trkpt>
      <trkpt lat="45.23494" lon="6.02536">
        <ele>2249.9</ele>
        <time>2015-03-29T10:56:00Z</time>
      </trkpt>
      <trkpt lat="45.23488" lon="6.02539">
        <ele>2245</ele>
        <time>2015-03-29T10:56:03Z</time>
      </trkpt>
      <trkpt lat="45.23479" lon="6.02538">
        <ele>2239.1</ele>
        <time>2015-03-29T10:56:06Z</time>
      </trkpt>
      <trkpt lat="45.23471" lon="6.02538">
        <ele>2235.4</ele>
        <time>2015-03-29T10:56:08Z</time>
      </trkpt>
      <trkpt lat="45.23464" lon="6.02542">
        <ele>2231.4</ele>
        <time>2015-03-29T10:56:10Z</time>
      </trkpt>
      <trkpt lat="45.23459" lon="6.02541">
        <ele>2229.5</ele>
        <time>2015-03-29T10:56:11Z</time>
      </trkpt>
      <trkpt lat="45.23451" lon="6.02542">
        <ele>2225.9</ele>
        <time>2015-03-29T10:56:13Z</time>
      </trkpt>
      <trkpt lat="45.23446" lon="6.02546">
        <ele>2223.7</ele>
        <time>2015-03-29T10:56:14Z</time>
      </trkpt>
      <trkpt lat="45.23439" lon="6.02543">
        <ele>2219.8</ele>
        <time>2015-03-29T10:56:16Z</time>
      </trkpt>
      <trkpt lat="45.23434" lon="6.02537">
        <ele>2214.1</ele>
        <time>2015-03-29T10:56:19Z</time>
      </trkpt>
      <trkpt lat="45.23426" lon="6.02534">
        <ele>2210.3</ele>
        <time>2015-03-29T10:56:22Z</time>
      </trkpt>
      <trkpt lat="45.23419" lon="6.02532">
        <ele>2208.8</ele>
        <time>2015-03-29T10:56:24Z</time>
      </trkpt>
      <trkpt lat="45.23411" lon="6.02533">
        <ele>2203.3</ele>
        <time>2015-03-29T10:56:58Z</time>
      </trkpt>
      <trkpt lat="45.23405" lon="6.02534">
        <ele>2202.6</ele>
        <time>2015-03-29T10:57:00Z</time>
      </trkpt>
      <trkpt lat="45.23396" lon="6.02536">
        <ele>2202.3</ele>
        <time>2015-03-29T10:57:02Z</time>
      </trkpt>
      <trkpt lat="45.23389" lon="6.02539">
        <ele>2202</ele>
        <time>2015-03-29T10:57:04Z</time>
      </trkpt>
      <trkpt lat="45.23383" lon="6.02541">
        <ele>2201.8</ele>
        <time>2015-03-29T10:57:06Z</time>
      </trkpt>
      <trkpt lat="45.23377" lon="6.02544">
        <ele>2201.7</ele>
        <time>2015-03-29T10:57:08Z</time>
      </trkpt>
      <trkpt lat="45.2337" lon="6.02546">
        <ele>2201.4</ele>
        <time>2015-03-29T10:57:10Z</time>
      </trkpt>
      <trkpt lat="45.23363" lon="6.02549">
        <ele>2200.9</ele>
        <time>2015-03-29T10:57:12Z</time>
      </trkpt>
      <trkpt lat="45.23357" lon="6.02553">
        <ele>2200.3</ele>
        <time>2015-03-29T10:57:14Z</time>
      </trkpt>
      <trkpt lat="45.2335" lon="6.02556">
        <ele>2199.7</ele>
        <time>2015-03-29T10:57:16Z</time>
      </trkpt>
      <trkpt lat="45.23342" lon="6.02558">
        <ele>2198.6</ele>
        <time>2015-03-29T10:57:19Z</time>
      </trkpt>
      <trkpt lat="45.23333" lon="6.02557">
        <ele>2198.4</ele>
        <time>2015-03-29T10:57:37Z</time>
      </trkpt>
      <trkpt lat="45.23327" lon="6.02548">
        <ele>2199.3</ele>
        <time>2015-03-29T10:58:10Z</time>
      </trkpt>
      <trkpt lat="45.23328" lon="6.02536">
        <ele>2200.4</ele>
        <time>2015-03-29T10:59:19Z</time>
      </trkpt>
      <trkpt lat="45.23328" lon="6.02527">
        <ele>2200.5</ele>
        <time>2015-03-29T10:59:21Z</time>
      </trkpt>
      <trkpt lat="45.23329" lon="6.02517">
        <ele>2200.6</ele>
        <time>2015-03-29T10:59:23Z</time>
      </trkpt>
      <trkpt lat="45.23329" lon="6.02508">
        <ele>2199.6</ele>
        <time>2015-03-29T10:59:25Z</time>
      </trkpt>
      <trkpt lat="45.23329" lon="6.02501">
        <ele>2199.3</ele>
        <time>2015-03-29T10:59:26Z</time>
      </trkpt>
      <trkpt lat="45.2333" lon="6.02494">
        <ele>2199</ele>
        <time>2015-03-29T10:59:27Z</time>
      </trkpt>
      <trkpt lat="45.2333" lon="6.02486">
        <ele>2198.7</ele>
        <time>2015-03-29T10:59:28Z</time>
      </trkpt>
      <trkpt lat="45.23331" lon="6.02478">
        <ele>2198.4</ele>
        <time>2015-03-29T10:59:29Z</time>
      </trkpt>
      <trkpt lat="45.2333" lon="6.0247">
        <ele>2197.8</ele>
        <time>2015-03-29T10:59:30Z</time>
      </trkpt>
      <trkpt lat="45.2333" lon="6.02461">
        <ele>2197.4</ele>
        <time>2015-03-29T10:59:31Z</time>
      </trkpt>
      <trkpt lat="45.23329" lon="6.02452">
        <ele>2196.4</ele>
        <time>2015-03-29T10:59:32Z</time>
      </trkpt>
      <trkpt lat="45.23329" lon="6.02443">
        <ele>2195.7</ele>
        <time>2015-03-29T10:59:33Z</time>
      </trkpt>
      <trkpt lat="45.23328" lon="6.02434">
        <ele>2195</ele>
        <time>2015-03-29T10:59:34Z</time>
      </trkpt>
      <trkpt lat="45.23327" lon="6.02425">
        <ele>2194.5</ele>
        <time>2015-03-29T10:59:35Z</time>
      </trkpt>
      <trkpt lat="45.23325" lon="6.02417">
        <ele>2193.9</ele>
        <time>2015-03-29T10:59:36Z</time>
      </trkpt>
      <trkpt lat="45.23324" lon="6.0241">
        <ele>2193.4</ele>
        <time>2015-03-29T10:59:37Z</time>
      </trkpt>
      <trkpt lat="45.23322" lon="6.024">
        <ele>2192.3</ele>
        <time>2015-03-29T10:59:39Z</time>
      </trkpt>
      <trkpt lat="45.23319" lon="6.0239">
        <ele>2191.4</ele>
        <time>2015-03-29T10:59:42Z</time>
      </trkpt>
      <trkpt lat="45.23314" lon="6.02381">
        <ele>2190.8</ele>
        <time>2015-03-29T10:59:45Z</time>
      </trkpt>
      <trkpt lat="45.23309" lon="6.02372">
        <ele>2190</ele>
        <time>2015-03-29T10:59:48Z</time>
      </trkpt>
      <trkpt lat="45.23305" lon="6.02364">
        <ele>2189.5</ele>
        <time>2015-03-29T10:59:51Z</time>
      </trkpt>
      <trkpt lat="45.23299" lon="6.02355">
        <ele>2185.3</ele>
        <time>2015-03-29T11:03:29Z</time>
      </trkpt>
      <trkpt lat="45.23297" lon="6.02353">
        <ele>2186</ele>
        <time>2015-03-29T11:04:59Z</time>
      </trkpt>
      <trkpt lat="45.23297" lon="6.02353">
        <ele>2186</ele>
        <time>2015-03-29T11:04:59Z</time>
      </trkpt>
      <trkpt lat="45.23297" lon="6.0234">
        <ele>2187.4</ele>
        <time>2015-03-29T11:10:14Z</time>
      </trkpt>
      <trkpt lat="45.23297" lon="6.02328">
        <ele>2189.7</ele>
        <time>2015-03-29T11:10:31Z</time>
      </trkpt>
      <trkpt lat="45.23294" lon="6.02316">
        <ele>2190.5</ele>
        <time>2015-03-29T11:10:46Z</time>
      </trkpt>
      <trkpt lat="45.23291" lon="6.02304">
        <ele>2191.3</ele>
        <time>2015-03-29T11:11:02Z</time>
      </trkpt>
      <trkpt lat="45.23287" lon="6.02293">
        <ele>2192.3</ele>
        <time>2015-03-29T11:11:33Z</time>
      </trkpt>
      <trkpt lat="45.23284" lon="6.02282">
        <ele>2194.2</ele>
        <time>2015-03-29T11:11:57Z</time>
      </trkpt>
      <trkpt lat="45.23283" lon="6.0227">
        <ele>2196.6</ele>
        <time>2015-03-29T11:12:10Z</time>
      </trkpt>
      <trkpt lat="45.2328" lon="6.02258">
        <ele>2198.3</ele>
        <time>2015-03-29T11:12:25Z</time>
      </trkpt>
      <trkpt lat="45.23279" lon="6.02246">
        <ele>2202</ele>
        <time>2015-03-29T11:12:48Z</time>
      </trkpt>
      <trkpt lat="45.23276" lon="6.02235">
        <ele>2203</ele>
        <time>2015-03-29T11:13:02Z</time>
      </trkpt>
      <trkpt lat="45.23274" lon="6.02222">
        <ele>2203.9</ele>
        <time>2015-03-29T11:13:18Z</time>
      </trkpt>
      <trkpt lat="45.23272" lon="6.02211">
        <ele>2206.5</ele>
        <time>2015-03-29T11:13:36Z</time>
      </trkpt>
      <trkpt lat="45.2327" lon="6.02199">
        <ele>2209.4</ele>
        <time>2015-03-29T11:13:54Z</time>
      </trkpt>
      <trkpt lat="45.23271" lon="6.02188">
        <ele>2210.6</ele>
        <time>2015-03-29T11:14:11Z</time>
      </trkpt>
      <trkpt lat="45.2327" lon="6.02176">
        <ele>2213.3</ele>
        <time>2015-03-29T11:14:28Z</time>
      </trkpt>
      <trkpt lat="45.2327" lon="6.02164">
        <ele>2214.5</ele>
        <time>2015-03-29T11:14:47Z</time>
      </trkpt>
      <trkpt lat="45.2327" lon="6.02152">
        <ele>2218</ele>
        <time>2015-03-29T11:15:04Z</time>
      </trkpt>
      <trkpt lat="45.2327" lon="6.0214">
        <ele>2219</ele>
        <time>2015-03-29T11:15:21Z</time>
      </trkpt>
      <trkpt lat="45.23269" lon="6.02127">
        <ele>2223.1</ele>
        <time>2015-03-29T11:15:41Z</time>
      </trkpt>
      <trkpt lat="45.23268" lon="6.02114">
        <ele>2224.2</ele>
        <time>2015-03-29T11:15:57Z</time>
      </trkpt>
      <trkpt lat="45.23267" lon="6.02102">
        <ele>2227</ele>
        <time>2015-03-29T11:16:18Z</time>
      </trkpt>
      <trkpt lat="45.23264" lon="6.0209">
        <ele>2229.1</ele>
        <time>2015-03-29T11:16:35Z</time>
      </trkpt>
      <trkpt lat="45.23261" lon="6.02078">
        <ele>2234.1</ele>
        <time>2015-03-29T11:17:13Z</time>
      </trkpt>
      <trkpt lat="45.23255" lon="6.02069">
        <ele>2235.8</ele>
        <time>2015-03-29T11:18:54Z</time>
      </trkpt>
      <trkpt lat="45.23249" lon="6.0206">
        <ele>2235.3</ele>
        <time>2015-03-29T11:19:05Z</time>
      </trkpt>
      <trkpt lat="45.23242" lon="6.02052">
        <ele>2234.7</ele>
        <time>2015-03-29T11:19:16Z</time>
      </trkpt>
      <trkpt lat="45.23233" lon="6.02049">
        <ele>2233.1</ele>
        <time>2015-03-29T11:19:29Z</time>
      </trkpt>
      <trkpt lat="45.23225" lon="6.02045">
        <ele>2229.3</ele>
        <time>2015-03-29T11:19:54Z</time>
      </trkpt>
      <trkpt lat="45.23217" lon="6.02039">
        <ele>2231.2</ele>
        <time>2015-03-29T11:20:12Z</time>
      </trkpt>
      <trkpt lat="45.23208" lon="6.02037">
        <ele>2228.6</ele>
        <time>2015-03-29T11:21:06Z</time>
      </trkpt>
      <trkpt lat="45.232" lon="6.02032">
        <ele>2228.6</ele>
        <time>2015-03-29T11:21:45Z</time>
      </trkpt>
      <trkpt lat="45.23198" lon="6.0202">
        <ele>2232</ele>
        <time>2015-03-29T11:22:33Z</time>
      </trkpt>
      <trkpt lat="45.2319" lon="6.02015">
        <ele>2218.7</ele>
        <time>2015-03-29T11:30:10Z</time>
      </trkpt>
      <trkpt lat="45.23185" lon="6.02005">
        <ele>2212.7</ele>
        <time>2015-03-29T11:30:47Z</time>
      </trkpt>
      <trkpt lat="45.23179" lon="6.01997">
        <ele>2204.3</ele>
        <time>2015-03-29T11:33:02Z</time>
      </trkpt>
      <trkpt lat="45.23179" lon="6.01988">
        <ele>2204.1</ele>
        <time>2015-03-29T11:33:04Z</time>
      </trkpt>
      <trkpt lat="45.23178" lon="6.01976">
        <ele>2202.7</ele>
        <time>2015-03-29T11:33:11Z</time>
      </trkpt>
      <trkpt lat="45.23178" lon="6.01963">
        <ele>2201.7</ele>
        <time>2015-03-29T11:33:26Z</time>
      </trkpt>
      <trkpt lat="45.23181" lon="6.01952">
        <ele>2203.1</ele>
        <time>2015-03-29T11:33:40Z</time>
      </trkpt>
      <trkpt lat="45.23184" lon="6.0194">
        <ele>2206.2</ele>
        <time>2015-03-29T11:33:54Z</time>
      </trkpt>
      <trkpt lat="45.23184" lon="6.01928">
        <ele>2209.8</ele>
        <time>2015-03-29T11:34:13Z</time>
      </trkpt>
      <trkpt lat="45.23184" lon="6.01917">
        <ele>2213.2</ele>
        <time>2015-03-29T11:34:29Z</time>
      </trkpt>
      <trkpt lat="45.23182" lon="6.01905">
        <ele>2214.8</ele>
        <time>2015-03-29T11:34:49Z</time>
      </trkpt>
      <trkpt lat="45.23181" lon="6.01893">
        <ele>2219.3</ele>
        <time>2015-03-29T11:35:08Z</time>
      </trkpt>
      <trkpt lat="45.2319" lon="6.01891">
        <ele>2223.8</ele>
        <time>2015-03-29T11:35:39Z</time>
      </trkpt>
      <trkpt lat="45.23198" lon="6.01892">
        <ele>2226.5</ele>
        <time>2015-03-29T11:35:54Z</time>
      </trkpt>
      <trkpt lat="45.23206" lon="6.01897">
        <ele>2228.7</ele>
        <time>2015-03-29T11:36:06Z</time>
      </trkpt>
      <trkpt lat="45.23213" lon="6.0189">
        <ele>2237.2</ele>
        <time>2015-03-29T11:37:00Z</time>
      </trkpt>
      <trkpt lat="45.2321" lon="6.01878">
        <ele>2240</ele>
        <time>2015-03-29T11:37:19Z</time>
      </trkpt>
      <trkpt lat="45.23219" lon="6.0188">
        <ele>2243.9</ele>
        <time>2015-03-29T11:37:48Z</time>
      </trkpt>
      <trkpt lat="45.23227" lon="6.01885">
        <ele>2247.4</ele>
        <time>2015-03-29T11:38:05Z</time>
      </trkpt>
      <trkpt lat="45.23233" lon="6.01894">
        <ele>2249.2</ele>
        <time>2015-03-29T11:38:16Z</time>
      </trkpt>
      <trkpt lat="45.23237" lon="6.01905">
        <ele>2252.7</ele>
        <time>2015-03-29T11:38:32Z</time>
      </trkpt>
      <trkpt lat="45.23245" lon="6.0191">
        <ele>2262.7</ele>
        <time>2015-03-29T11:39:44Z</time>
      </trkpt>
      <trkpt lat="45.23248" lon="6.01899">
        <ele>2270.7</ele>
        <time>2015-03-29T11:40:50Z</time>
      </trkpt>
      <trkpt lat="45.2325" lon="6.01887">
        <ele>2272.2</ele>
        <time>2015-03-29T11:41:08Z</time>
      </trkpt>
      <trkpt lat="45.2325" lon="6.01887">
        <ele>2272.2</ele>
        <time>2015-03-29T11:41:08Z</time>
      </trkpt>
      <trkpt lat="45.23251" lon="6.01875">
        <ele>2275.1</ele>
        <time>2015-03-29T11:41:24Z</time>
      </trkpt>
      <trkpt lat="45.23259" lon="6.01877">
        <ele>2281.8</ele>
        <time>2015-03-29T11:42:16Z</time>
      </trkpt>
      <trkpt lat="45.23263" lon="6.01888">
        <ele>2285.5</ele>
        <time>2015-03-29T11:42:38Z</time>
      </trkpt>
      <trkpt lat="45.23268" lon="6.01898">
        <ele>2288.7</ele>
        <time>2015-03-29T11:43:05Z</time>
      </trkpt>
      <trkpt lat="45.23273" lon="6.01908">
        <ele>2291.1</ele>
        <time>2015-03-29T11:43:28Z</time>
      </trkpt>
      <trkpt lat="45.23276" lon="6.0192">
        <ele>2295.2</ele>
        <time>2015-03-29T11:43:52Z</time>
      </trkpt>
      <trkpt lat="45.23277" lon="6.01932">
        <ele>2297.4</ele>
        <time>2015-03-29T11:44:27Z</time>
      </trkpt>
      <trkpt lat="45.2328" lon="6.01944">
        <ele>2300.8</ele>
        <time>2015-03-29T11:44:54Z</time>
      </trkpt>
      <trkpt lat="45.2328" lon="6.01956">
        <ele>2304.3</ele>
        <time>2015-03-29T11:45:18Z</time>
      </trkpt>
      <trkpt lat="45.23286" lon="6.01946">
        <ele>2310.5</ele>
        <time>2015-03-29T11:47:07Z</time>
      </trkpt>
      <trkpt lat="45.23289" lon="6.01935">
        <ele>2314</ele>
        <time>2015-03-29T11:47:31Z</time>
      </trkpt>
      <trkpt lat="45.23295" lon="6.01926">
        <ele>2317</ele>
        <time>2015-03-29T11:48:40Z</time>
      </trkpt>
      <trkpt lat="45.23299" lon="6.01915">
        <ele>2319.3</ele>
        <time>2015-03-29T11:48:57Z</time>
      </trkpt>
      <trkpt lat="45.23301" lon="6.01902">
        <ele>2323</ele>
        <time>2015-03-29T11:51:20Z</time>
      </trkpt>
      <trkpt lat="45.23294" lon="6.01894">
        <ele>2323.8</ele>
        <time>2015-03-29T11:55:03Z</time>
      </trkpt>
      <trkpt lat="45.2329" lon="6.01883">
        <ele>2323.9</ele>
        <time>2015-03-29T11:55:50Z</time>
      </trkpt>
      <trkpt lat="45.2329" lon="6.0187">
        <ele>2321.6</ele>
        <time>2015-03-29T11:58:08Z</time>
      </trkpt>
      <trkpt lat="45.2329" lon="6.01858">
        <ele>2323.8</ele>
        <time>2015-03-29T11:58:38Z</time>
      </trkpt>
      <trkpt lat="45.23286" lon="6.01847">
        <ele>2324.1</ele>
        <time>2015-03-29T11:59:12Z</time>
      </trkpt>
      <trkpt lat="45.2328" lon="6.01838">
        <ele>2324.8</ele>
        <time>2015-03-29T11:59:45Z</time>
      </trkpt>
      <trkpt lat="45.23271" lon="6.01834">
        <ele>2323.8</ele>
        <time>2015-03-29T12:00:13Z</time>
      </trkpt>
      <trkpt lat="45.23264" lon="6.01827">
        <ele>2323.3</ele>
        <time>2015-03-29T12:00:51Z</time>
      </trkpt>
      <trkpt lat="45.23256" lon="6.01823">
        <ele>2321.7</ele>
        <time>2015-03-29T12:02:08Z</time>
      </trkpt>
      <trkpt lat="45.23254" lon="6.0181">
        <ele>2316.9</ele>
        <time>2015-03-29T12:14:39Z</time>
      </trkpt>
      <trkpt lat="45.23255" lon="6.01799">
        <ele>2313.7</ele>
        <time>2015-03-29T12:14:56Z</time>
      </trkpt>
      <trkpt lat="45.23263" lon="6.01799">
        <ele>2310.1</ele>
        <time>2015-03-29T12:15:05Z</time>
      </trkpt>
      <trkpt lat="45.2327" lon="6.01802">
        <ele>2302.4</ele>
        <time>2015-03-29T12:15:21Z</time>
      </trkpt>
      <trkpt lat="45.23277" lon="6.01797">
        <ele>2294.7</ele>
        <time>2015-03-29T12:15:36Z</time>
      </trkpt>
      <trkpt lat="45.23285" lon="6.01792">
        <ele>2288.3</ele>
        <time>2015-03-29T12:15:44Z</time>
      </trkpt>
      <trkpt lat="45.23289" lon="6.01784">
        <ele>2278.1</ele>
        <time>2015-03-29T12:15:55Z</time>
      </trkpt>
      <trkpt lat="45.23294" lon="6.01777">
        <ele>2273.6</ele>
        <time>2015-03-29T12:16:01Z</time>
      </trkpt>
      <trkpt lat="45.233" lon="6.01768">
        <ele>2267.6</ele>
        <time>2015-03-29T12:16:08Z</time>
      </trkpt>
      <trkpt lat="45.233" lon="6.01757">
        <ele>2260.9</ele>
        <time>2015-03-29T12:16:16Z</time>
      </trkpt>
      <trkpt lat="45.23309" lon="6.0176">
        <ele>2250</ele>
        <time>2015-03-29T12:16:52Z</time>
      </trkpt>
      <trkpt lat="45.23305" lon="6.01753">
        <ele>2249.9</ele>
        <time>2015-03-29T12:20:50Z</time>
      </trkpt>
      <trkpt lat="45.2331" lon="6.01745">
        <ele>2248.6</ele>
        <time>2015-03-29T12:20:53Z</time>
      </trkpt>
      <trkpt lat="45.23314" lon="6.01739">
        <ele>2247.3</ele>
        <time>2015-03-29T12:20:55Z</time>
      </trkpt>
      <trkpt lat="45.23322" lon="6.01738">
        <ele>2244.8</ele>
        <time>2015-03-29T12:20:57Z</time>
      </trkpt>
      <trkpt lat="45.23327" lon="6.01733">
        <ele>2241.4</ele>
        <time>2015-03-29T12:20:59Z</time>
      </trkpt>
      <trkpt lat="45.23335" lon="6.0173">
        <ele>2237.3</ele>
        <time>2015-03-29T12:21:01Z</time>
      </trkpt>
      <trkpt lat="45.23341" lon="6.01729">
        <ele>2233.3</ele>
        <time>2015-03-29T12:21:03Z</time>
      </trkpt>
      <trkpt lat="45.23347" lon="6.01723">
        <ele>2228.9</ele>
        <time>2015-03-29T12:21:05Z</time>
      </trkpt>
      <trkpt lat="45.23354" lon="6.01721">
        <ele>2224.6</ele>
        <time>2015-03-29T12:21:07Z</time>
      </trkpt>
      <trkpt lat="45.23357" lon="6.01716">
        <ele>2221.7</ele>
        <time>2015-03-29T12:21:08Z</time>
      </trkpt>
      <trkpt lat="45.23366" lon="6.01718">
        <ele>2216.5</ele>
        <time>2015-03-29T12:21:10Z</time>
      </trkpt>
      <trkpt lat="45.23374" lon="6.01712">
        <ele>2208.9</ele>
        <time>2015-03-29T12:21:13Z</time>
      </trkpt>
      <trkpt lat="45.23379" lon="6.01708">
        <ele>2203.6</ele>
        <time>2015-03-29T12:21:15Z</time>
      </trkpt>
      <trkpt lat="45.23383" lon="6.01706">
        <ele>2200.6</ele>
        <time>2015-03-29T12:21:16Z</time>
      </trkpt>
      <trkpt lat="45.2339" lon="6.01704">
        <ele>2195.5</ele>
        <time>2015-03-29T12:21:18Z</time>
      </trkpt>
      <trkpt lat="45.23394" lon="6.01699">
        <ele>2193.4</ele>
        <time>2015-03-29T12:21:19Z</time>
      </trkpt>
      <trkpt lat="45.23399" lon="6.017">
        <ele>2190.5</ele>
        <time>2015-03-29T12:21:20Z</time>
      </trkpt>
      <trkpt lat="45.23405" lon="6.01699">
        <ele>2185.4</ele>
        <time>2015-03-29T12:21:22Z</time>
      </trkpt>
      <trkpt lat="45.23412" lon="6.01693">
        <ele>2180.3</ele>
        <time>2015-03-29T12:21:24Z</time>
      </trkpt>
      <trkpt lat="45.23421" lon="6.01691">
        <ele>2174.9</ele>
        <time>2015-03-29T12:21:26Z</time>
      </trkpt>
      <trkpt lat="45.23429" lon="6.01689">
        <ele>2168.9</ele>
        <time>2015-03-29T12:21:28Z</time>
      </trkpt>
      <trkpt lat="45.23431" lon="6.01682">
        <ele>2166.2</ele>
        <time>2015-03-29T12:21:29Z</time>
      </trkpt>
      <trkpt lat="45.23437" lon="6.01679">
        <ele>2162.9</ele>
        <time>2015-03-29T12:21:30Z</time>
      </trkpt>
      <trkpt lat="45.23444" lon="6.01676">
        <ele>2157.4</ele>
        <time>2015-03-29T12:21:32Z</time>
      </trkpt>
      <trkpt lat="45.23451" lon="6.01672">
        <ele>2152</ele>
        <time>2015-03-29T12:21:34Z</time>
      </trkpt>
      <trkpt lat="45.23451" lon="6.01663">
        <ele>2146.2</ele>
        <time>2015-03-29T12:21:36Z</time>
      </trkpt>
      <trkpt lat="45.23456" lon="6.01654">
        <ele>2140.8</ele>
        <time>2015-03-29T12:21:38Z</time>
      </trkpt>
      <trkpt lat="45.23459" lon="6.01644">
        <ele>2135.9</ele>
        <time>2015-03-29T12:21:40Z</time>
      </trkpt>
      <trkpt lat="45.23462" lon="6.01634">
        <ele>2131.3</ele>
        <time>2015-03-29T12:21:42Z</time>
      </trkpt>
      <trkpt lat="45.23462" lon="6.01627">
        <ele>2129.4</ele>
        <time>2015-03-29T12:21:43Z</time>
      </trkpt>
      <trkpt lat="45.23464" lon="6.01615">
        <ele>2124.8</ele>
        <time>2015-03-29T12:21:45Z</time>
      </trkpt>
      <trkpt lat="45.23464" lon="6.01608">
        <ele>2122.6</ele>
        <time>2015-03-29T12:21:46Z</time>
      </trkpt>
      <trkpt lat="45.23466" lon="6.016">
        <ele>2120.8</ele>
        <time>2015-03-29T12:21:47Z</time>
      </trkpt>
      <trkpt lat="45.23463" lon="6.01589">
        <ele>2106.6</ele>
        <time>2015-03-29T12:22:14Z</time>
      </trkpt>
      <trkpt lat="45.23461" lon="6.0158">
        <ele>2106.1</ele>
        <time>2015-03-29T12:22:16Z</time>
      </trkpt>
      <trkpt lat="45.23462" lon="6.0157">
        <ele>2105.2</ele>
        <time>2015-03-29T12:22:18Z</time>
      </trkpt>
      <trkpt lat="45.23459" lon="6.01564">
        <ele>2104.7</ele>
        <time>2015-03-29T12:22:19Z</time>
      </trkpt>
      <trkpt lat="45.23461" lon="6.01552">
        <ele>2103.6</ele>
        <time>2015-03-29T12:22:21Z</time>
      </trkpt>
      <trkpt lat="45.23464" lon="6.01546">
        <ele>2103</ele>
        <time>2015-03-29T12:22:22Z</time>
      </trkpt>
      <trkpt lat="45.23467" lon="6.0154">
        <ele>2102.6</ele>
        <time>2015-03-29T12:22:23Z</time>
      </trkpt>
      <trkpt lat="45.23469" lon="6.01533">
        <ele>2101.4</ele>
        <time>2015-03-29T12:22:24Z</time>
      </trkpt>
      <trkpt lat="45.23475" lon="6.01529">
        <ele>2098.9</ele>
        <time>2015-03-29T12:22:26Z</time>
      </trkpt>
      <trkpt lat="45.23481" lon="6.01523">
        <ele>2094.7</ele>
        <time>2015-03-29T12:22:29Z</time>
      </trkpt>
      <trkpt lat="45.23487" lon="6.01516">
        <ele>2090.2</ele>
        <time>2015-03-29T12:22:32Z</time>
      </trkpt>
      <trkpt lat="45.23493" lon="6.01512">
        <ele>2087.6</ele>
        <time>2015-03-29T12:22:34Z</time>
      </trkpt>
      <trkpt lat="45.23494" lon="6.01505">
        <ele>2086.5</ele>
        <time>2015-03-29T12:22:35Z</time>
      </trkpt>
      <trkpt lat="45.23502" lon="6.01499">
        <ele>2081.1</ele>
        <time>2015-03-29T12:22:38Z</time>
      </trkpt>
      <trkpt lat="45.23506" lon="6.01491">
        <ele>2077</ele>
        <time>2015-03-29T12:22:41Z</time>
      </trkpt>
      <trkpt lat="45.23509" lon="6.0148">
        <ele>2074.7</ele>
        <time>2015-03-29T12:22:43Z</time>
      </trkpt>
      <trkpt lat="45.23512" lon="6.0147">
        <ele>2071.9</ele>
        <time>2015-03-29T12:22:45Z</time>
      </trkpt>
      <trkpt lat="45.23513" lon="6.01462">
        <ele>2069.8</ele>
        <time>2015-03-29T12:22:47Z</time>
      </trkpt>
      <trkpt lat="45.2352" lon="6.01459">
        <ele>2067.2</ele>
        <time>2015-03-29T12:22:51Z</time>
      </trkpt>
      <trkpt lat="45.23527" lon="6.01456">
        <ele>2065.6</ele>
        <time>2015-03-29T12:22:53Z</time>
      </trkpt>
      <trkpt lat="45.23534" lon="6.0146">
        <ele>2063.5</ele>
        <time>2015-03-29T12:22:55Z</time>
      </trkpt>
      <trkpt lat="45.2354" lon="6.01452">
        <ele>2059</ele>
        <time>2015-03-29T12:22:58Z</time>
      </trkpt>
      <trkpt lat="45.23543" lon="6.01444">
        <ele>2053.7</ele>
        <time>2015-03-29T12:23:01Z</time>
      </trkpt>
      <trkpt lat="45.2354" lon="6.01434">
        <ele>2050.1</ele>
        <time>2015-03-29T12:23:03Z</time>
      </trkpt>
      <trkpt lat="45.23544" lon="6.01424">
        <ele>2044.2</ele>
        <time>2015-03-29T12:23:07Z</time>
      </trkpt>
      <trkpt lat="45.23548" lon="6.01416">
        <ele>2038.9</ele>
        <time>2015-03-29T12:23:10Z</time>
      </trkpt>
      <trkpt lat="45.2355" lon="6.01409">
        <ele>2035.5</ele>
        <time>2015-03-29T12:23:12Z</time>
      </trkpt>
      <trkpt lat="45.23558" lon="6.01405">
        <ele>2031.7</ele>
        <time>2015-03-29T12:23:14Z</time>
      </trkpt>
      <trkpt lat="45.23559" lon="6.01397">
        <ele>2027.4</ele>
        <time>2015-03-29T12:23:16Z</time>
      </trkpt>
      <trkpt lat="45.23556" lon="6.0139">
        <ele>2025.5</ele>
        <time>2015-03-29T12:23:17Z</time>
      </trkpt>
      <trkpt lat="45.23553" lon="6.01384">
        <ele>2023.3</ele>
        <time>2015-03-29T12:23:18Z</time>
      </trkpt>
      <trkpt lat="45.23555" lon="6.01371">
        <ele>2018.4</ele>
        <time>2015-03-29T12:23:21Z</time>
      </trkpt>
      <trkpt lat="45.23557" lon="6.01363">
        <ele>2015.5</ele>
        <time>2015-03-29T12:23:23Z</time>
      </trkpt>
      <trkpt lat="45.23565" lon="6.01361">
        <ele>2011.6</ele>
        <time>2015-03-29T12:23:25Z</time>
      </trkpt>
      <trkpt lat="45.2357" lon="6.01353">
        <ele>2007.4</ele>
        <time>2015-03-29T12:23:27Z</time>
      </trkpt>
      <trkpt lat="45.23574" lon="6.01351">
        <ele>2004.7</ele>
        <time>2015-03-29T12:23:28Z</time>
      </trkpt>
      <trkpt lat="45.23581" lon="6.01347">
        <ele>2000</ele>
        <time>2015-03-29T12:23:30Z</time>
      </trkpt>
      <trkpt lat="45.23586" lon="6.0134">
        <ele>1994.9</ele>
        <time>2015-03-29T12:23:32Z</time>
      </trkpt>
      <trkpt lat="45.23595" lon="6.01343">
        <ele>1989.4</ele>
        <time>2015-03-29T12:23:34Z</time>
      </trkpt>
      <trkpt lat="45.236" lon="6.01335">
        <ele>1984</ele>
        <time>2015-03-29T12:23:36Z</time>
      </trkpt>
      <trkpt lat="45.23607" lon="6.01332">
        <ele>1979.7</ele>
        <time>2015-03-29T12:23:38Z</time>
      </trkpt>
      <trkpt lat="45.2361" lon="6.01327">
        <ele>1978.2</ele>
        <time>2015-03-29T12:23:39Z</time>
      </trkpt>
      <trkpt lat="45.23614" lon="6.01323">
        <ele>1975.5</ele>
        <time>2015-03-29T12:23:40Z</time>
      </trkpt>
      <trkpt lat="45.23619" lon="6.01324">
        <ele>1973.5</ele>
        <time>2015-03-29T12:23:41Z</time>
      </trkpt>
      <trkpt lat="45.23623" lon="6.01321">
        <ele>1970.7</ele>
        <time>2015-03-29T12:23:42Z</time>
      </trkpt>
      <trkpt lat="45.23627" lon="6.01314">
        <ele>1968.6</ele>
        <time>2015-03-29T12:23:43Z</time>
      </trkpt>
      <trkpt lat="45.2363" lon="6.01309">
        <ele>1965.6</ele>
        <time>2015-03-29T12:23:44Z</time>
      </trkpt>
      <trkpt lat="45.23633" lon="6.01302">
        <ele>1963.3</ele>
        <time>2015-03-29T12:23:45Z</time>
      </trkpt>
      <trkpt lat="45.23634" lon="6.01291">
        <ele>1959.6</ele>
        <time>2015-03-29T12:23:46Z</time>
      </trkpt>
      <trkpt lat="45.23635" lon="6.0128">
        <ele>1956.9</ele>
        <time>2015-03-29T12:23:47Z</time>
      </trkpt>
      <trkpt lat="45.2364" lon="6.01271">
        <ele>1953.9</ele>
        <time>2015-03-29T12:23:48Z</time>
      </trkpt>
      <trkpt lat="45.23644" lon="6.01263">
        <ele>1951.7</ele>
        <time>2015-03-29T12:23:49Z</time>
      </trkpt>
      <trkpt lat="45.23644" lon="6.01255">
        <ele>1949.2</ele>
        <time>2015-03-29T12:23:50Z</time>
      </trkpt>
      <trkpt lat="45.23644" lon="6.01246">
        <ele>1947.3</ele>
        <time>2015-03-29T12:23:51Z</time>
      </trkpt>
      <trkpt lat="45.23649" lon="6.01236">
        <ele>1937</ele>
        <time>2015-03-29T12:24:51Z</time>
      </trkpt>
      <trkpt lat="45.23651" lon="6.01228">
        <ele>1936.8</ele>
        <time>2015-03-29T12:24:58Z</time>
      </trkpt>
      <trkpt lat="45.23651" lon="6.01228">
        <ele>1936.8</ele>
        <time>2015-03-29T12:24:58Z</time>
      </trkpt>
      <trkpt lat="45.23659" lon="6.01222">
        <ele>1936.8</ele>
        <time>2015-03-29T12:25:00Z</time>
      </trkpt>
      <trkpt lat="45.23664" lon="6.0122">
        <ele>1936.8</ele>
        <time>2015-03-29T12:25:01Z</time>
      </trkpt>
      <trkpt lat="45.23669" lon="6.0122">
        <ele>1936.6</ele>
        <time>2015-03-29T12:25:02Z</time>
      </trkpt>
      <trkpt lat="45.23677" lon="6.01222">
        <ele>1935.8</ele>
        <time>2015-03-29T12:25:04Z</time>
      </trkpt>
      <trkpt lat="45.23685" lon="6.01225">
        <ele>1933.8</ele>
        <time>2015-03-29T12:25:08Z</time>
      </trkpt>
      <trkpt lat="45.23689" lon="6.01217">
        <ele>1931.2</ele>
        <time>2015-03-29T12:25:47Z</time>
      </trkpt>
      <trkpt lat="45.23689" lon="6.01209">
        <ele>1928</ele>
        <time>2015-03-29T12:25:50Z</time>
      </trkpt>
      <trkpt lat="45.23692" lon="6.01198">
        <ele>1925.5</ele>
        <time>2015-03-29T12:25:53Z</time>
      </trkpt>
      <trkpt lat="45.23689" lon="6.0119">
        <ele>1921.8</ele>
        <time>2015-03-29T12:25:56Z</time>
      </trkpt>
      <trkpt lat="45.23683" lon="6.01181">
        <ele>1918</ele>
        <time>2015-03-29T12:25:59Z</time>
      </trkpt>
      <trkpt lat="45.23683" lon="6.01171">
        <ele>1915.6</ele>
        <time>2015-03-29T12:26:02Z</time>
      </trkpt>
      <trkpt lat="45.23685" lon="6.01159">
        <ele>1913.5</ele>
        <time>2015-03-29T12:26:05Z</time>
      </trkpt>
      <trkpt lat="45.23691" lon="6.0115">
        <ele>1910.9</ele>
        <time>2015-03-29T12:26:07Z</time>
      </trkpt>
      <trkpt lat="45.23692" lon="6.0114">
        <ele>1908.3</ele>
        <time>2015-03-29T12:26:09Z</time>
      </trkpt>
      <trkpt lat="45.23693" lon="6.01131">
        <ele>1904.6</ele>
        <time>2015-03-29T12:26:11Z</time>
      </trkpt>
      <trkpt lat="45.23697" lon="6.01122">
        <ele>1900.7</ele>
        <time>2015-03-29T12:26:13Z</time>
      </trkpt>
      <trkpt lat="45.23701" lon="6.01117">
        <ele>1899.2</ele>
        <time>2015-03-29T12:26:14Z</time>
      </trkpt>
      <trkpt lat="45.23707" lon="6.01108">
        <ele>1892</ele>
        <time>2015-03-29T12:26:17Z</time>
      </trkpt>
      <trkpt lat="45.23712" lon="6.01098">
        <ele>1886.5</ele>
        <time>2015-03-29T12:26:20Z</time>
      </trkpt>
      <trkpt lat="45.23718" lon="6.01093">
        <ele>1881.9</ele>
        <time>2015-03-29T12:26:22Z</time>
      </trkpt>
      <trkpt lat="45.23723" lon="6.01085">
        <ele>1877.5</ele>
        <time>2015-03-29T12:26:24Z</time>
      </trkpt>
      <trkpt lat="45.23725" lon="6.0108">
        <ele>1875.6</ele>
        <time>2015-03-29T12:26:25Z</time>
      </trkpt>
      <trkpt lat="45.23727" lon="6.01073">
        <ele>1874.1</ele>
        <time>2015-03-29T12:26:26Z</time>
      </trkpt>
      <trkpt lat="45.23728" lon="6.01065">
        <ele>1871.9</ele>
        <time>2015-03-29T12:26:27Z</time>
      </trkpt>
      <trkpt lat="45.23728" lon="6.01055">
        <ele>1870.2</ele>
        <time>2015-03-29T12:26:28Z</time>
      </trkpt>
      <trkpt lat="45.23733" lon="6.01044">
        <ele>1865.7</ele>
        <time>2015-03-29T12:26:30Z</time>
      </trkpt>
      <trkpt lat="45.23737" lon="6.01041">
        <ele>1863.5</ele>
        <time>2015-03-29T12:26:31Z</time>
      </trkpt>
      <trkpt lat="45.23745" lon="6.01034">
        <ele>1860.1</ele>
        <time>2015-03-29T12:26:33Z</time>
      </trkpt>
      <trkpt lat="45.23751" lon="6.01025">
        <ele>1856.7</ele>
        <time>2015-03-29T12:26:35Z</time>
      </trkpt>
      <trkpt lat="45.23756" lon="6.01022">
        <ele>1853.8</ele>
        <time>2015-03-29T12:26:37Z</time>
      </trkpt>
      <trkpt lat="45.23764" lon="6.01019">
        <ele>1851</ele>
        <time>2015-03-29T12:26:39Z</time>
      </trkpt>
      <trkpt lat="45.23771" lon="6.01014">
        <ele>1846.8</ele>
        <time>2015-03-29T12:26:42Z</time>
      </trkpt>
      <trkpt lat="45.23774" lon="6.01005">
        <ele>1843.6</ele>
        <time>2015-03-29T12:26:44Z</time>
      </trkpt>
      <trkpt lat="45.23773" lon="6.00998">
        <ele>1842</ele>
        <time>2015-03-29T12:26:45Z</time>
      </trkpt>
      <trkpt lat="45.23771" lon="6.0099">
        <ele>1840.7</ele>
        <time>2015-03-29T12:26:46Z</time>
      </trkpt>
      <trkpt lat="45.2377" lon="6.00982">
        <ele>1838.5</ele>
        <time>2015-03-29T12:26:47Z</time>
      </trkpt>
      <trkpt lat="45.2377" lon="6.00973">
        <ele>1836.8</ele>
        <time>2015-03-29T12:26:48Z</time>
      </trkpt>
      <trkpt lat="45.23771" lon="6.00966">
        <ele>1835</ele>
        <time>2015-03-29T12:26:49Z</time>
      </trkpt>
      <trkpt lat="45.23772" lon="6.00954">
        <ele>1831.1</ele>
        <time>2015-03-29T12:26:52Z</time>
      </trkpt>
      <trkpt lat="45.23775" lon="6.00944">
        <ele>1826.7</ele>
        <time>2015-03-29T12:27:22Z</time>
      </trkpt>
      <trkpt lat="45.23779" lon="6.00933">
        <ele>1825.7</ele>
        <time>2015-03-29T12:27:25Z</time>
      </trkpt>
      <trkpt lat="45.23787" lon="6.00933">
        <ele>1824.4</ele>
        <time>2015-03-29T12:27:27Z</time>
      </trkpt>
      <trkpt lat="45.23792" lon="6.00929">
        <ele>1822.3</ele>
        <time>2015-03-29T12:27:29Z</time>
      </trkpt>
      <trkpt lat="45.238" lon="6.00925">
        <ele>1820</ele>
        <time>2015-03-29T12:27:31Z</time>
      </trkpt>
      <trkpt lat="45.23806" lon="6.00916">
        <ele>1816.4</ele>
        <time>2015-03-29T12:27:33Z</time>
      </trkpt>
      <trkpt lat="45.23811" lon="6.00914">
        <ele>1814.4</ele>
        <time>2015-03-29T12:27:34Z</time>
      </trkpt>
      <trkpt lat="45.23815" lon="6.00908">
        <ele>1812.4</ele>
        <time>2015-03-29T12:27:35Z</time>
      </trkpt>
      <trkpt lat="45.23817" lon="6.00901">
        <ele>1810.8</ele>
        <time>2015-03-29T12:27:36Z</time>
      </trkpt>
      <trkpt lat="45.2382" lon="6.00897">
        <ele>1807.6</ele>
        <time>2015-03-29T12:27:37Z</time>
      </trkpt>
      <trkpt lat="45.23825" lon="6.00893">
        <ele>1805.2</ele>
        <time>2015-03-29T12:27:38Z</time>
      </trkpt>
      <trkpt lat="45.23828" lon="6.00886">
        <ele>1802.7</ele>
        <time>2015-03-29T12:27:39Z</time>
      </trkpt>
      <trkpt lat="45.23831" lon="6.00878">
        <ele>1800.8</ele>
        <time>2015-03-29T12:27:40Z</time>
      </trkpt>
      <trkpt lat="45.23836" lon="6.00874">
        <ele>1798.5</ele>
        <time>2015-03-29T12:27:41Z</time>
      </trkpt>
      <trkpt lat="45.23841" lon="6.00872">
        <ele>1796.9</ele>
        <time>2015-03-29T12:27:42Z</time>
      </trkpt>
      <trkpt lat="45.23846" lon="6.00868">
        <ele>1794.9</ele>
        <time>2015-03-29T12:27:43Z</time>
      </trkpt>
      <trkpt lat="45.23849" lon="6.00864">
        <ele>1793.4</ele>
        <time>2015-03-29T12:27:44Z</time>
      </trkpt>
      <trkpt lat="45.23853" lon="6.00859">
        <ele>1791</ele>
        <time>2015-03-29T12:27:45Z</time>
      </trkpt>
      <trkpt lat="45.2386" lon="6.00855">
        <ele>1787.6</ele>
        <time>2015-03-29T12:27:47Z</time>
      </trkpt>
      <trkpt lat="45.23867" lon="6.0085">
        <ele>1784.8</ele>
        <time>2015-03-29T12:27:49Z</time>
      </trkpt>
      <trkpt lat="45.23874" lon="6.00844">
        <ele>1782.5</ele>
        <time>2015-03-29T12:27:51Z</time>
      </trkpt>
      <trkpt lat="45.23881" lon="6.00838">
        <ele>1780.4</ele>
        <time>2015-03-29T12:27:53Z</time>
      </trkpt>
      <trkpt lat="45.23889" lon="6.00832">
        <ele>1778.2</ele>
        <time>2015-03-29T12:27:55Z</time>
      </trkpt>
      <trkpt lat="45.23897" lon="6.0083">
        <ele>1775.5</ele>
        <time>2015-03-29T12:27:57Z</time>
      </trkpt>
      <trkpt lat="45.23904" lon="6.00823">
        <ele>1772.9</ele>
        <time>2015-03-29T12:27:59Z</time>
      </trkpt>
      <trkpt lat="45.23911" lon="6.00817">
        <ele>1770.9</ele>
        <time>2015-03-29T12:28:01Z</time>
      </trkpt>
      <trkpt lat="45.23917" lon="6.00808">
        <ele>1767.6</ele>
        <time>2015-03-29T12:28:03Z</time>
      </trkpt>
      <trkpt lat="45.23925" lon="6.00803">
        <ele>1765.5</ele>
        <time>2015-03-29T12:28:05Z</time>
      </trkpt>
      <trkpt lat="45.23933" lon="6.00799">
        <ele>1763.3</ele>
        <time>2015-03-29T12:28:07Z</time>
      </trkpt>
      <trkpt lat="45.23936" lon="6.00789">
        <ele>1754.9</ele>
        <time>2015-03-29T12:28:23Z</time>
      </trkpt>
      <trkpt lat="45.23943" lon="6.00786">
        <ele>1754.9</ele>
        <time>2015-03-29T12:28:26Z</time>
      </trkpt>
      <trkpt lat="45.2395" lon="6.00782">
        <ele>1754.7</ele>
        <time>2015-03-29T12:28:28Z</time>
      </trkpt>
      <trkpt lat="45.23954" lon="6.0078">
        <ele>1754.6</ele>
        <time>2015-03-29T12:28:29Z</time>
      </trkpt>
      <trkpt lat="45.23963" lon="6.0078">
        <ele>1753.7</ele>
        <time>2015-03-29T12:28:31Z</time>
      </trkpt>
      <trkpt lat="45.2397" lon="6.00783">
        <ele>1752.4</ele>
        <time>2015-03-29T12:28:33Z</time>
      </trkpt>
      <trkpt lat="45.23978" lon="6.00787">
        <ele>1751.1</ele>
        <time>2015-03-29T12:28:35Z</time>
      </trkpt>
      <trkpt lat="45.23986" lon="6.00789">
        <ele>1748.6</ele>
        <time>2015-03-29T12:28:38Z</time>
      </trkpt>
      <trkpt lat="45.23992" lon="6.00794">
        <ele>1743.6</ele>
        <time>2015-03-29T12:29:00Z</time>
      </trkpt>
      <trkpt lat="45.23997" lon="6.00791">
        <ele>1743.4</ele>
        <time>2015-03-29T12:29:01Z</time>
      </trkpt>
      <trkpt lat="45.24006" lon="6.00792">
        <ele>1742.6</ele>
        <time>2015-03-29T12:29:03Z</time>
      </trkpt>
      <trkpt lat="45.2401" lon="6.00788">
        <ele>1742</ele>
        <time>2015-03-29T12:29:05Z</time>
      </trkpt>
      <trkpt lat="45.24016" lon="6.00788">
        <ele>1741.2</ele>
        <time>2015-03-29T12:29:06Z</time>
      </trkpt>
      <trkpt lat="45.24022" lon="6.0079">
        <ele>1740.6</ele>
        <time>2015-03-29T12:29:07Z</time>
      </trkpt>
      <trkpt lat="45.24028" lon="6.00793">
        <ele>1738.9</ele>
        <time>2015-03-29T12:29:08Z</time>
      </trkpt>
      <trkpt lat="45.24034" lon="6.00796">
        <ele>1737.6</ele>
        <time>2015-03-29T12:29:09Z</time>
      </trkpt>
      <trkpt lat="45.24039" lon="6.00799">
        <ele>1736</ele>
        <time>2015-03-29T12:29:10Z</time>
      </trkpt>
      <trkpt lat="45.24038" lon="6.00787">
        <ele>1727.4</ele>
        <time>2015-03-29T12:29:17Z</time>
      </trkpt>
      <trkpt lat="45.24041" lon="6.00778">
        <ele>1725.6</ele>
        <time>2015-03-29T12:29:19Z</time>
      </trkpt>
      <trkpt lat="45.24043" lon="6.00767">
        <ele>1723.7</ele>
        <time>2015-03-29T12:29:21Z</time>
      </trkpt>
      <trkpt lat="45.24049" lon="6.00759">
        <ele>1720.3</ele>
        <time>2015-03-29T12:29:23Z</time>
      </trkpt>
      <trkpt lat="45.24051" lon="6.00752">
        <ele>1718.2</ele>
        <time>2015-03-29T12:29:24Z</time>
      </trkpt>
      <trkpt lat="45.24056" lon="6.00746">
        <ele>1716.6</ele>
        <time>2015-03-29T12:29:25Z</time>
      </trkpt>
      <trkpt lat="45.24061" lon="6.00744">
        <ele>1714</ele>
        <time>2015-03-29T12:29:26Z</time>
      </trkpt>
      <trkpt lat="45.24068" lon="6.00739">
        <ele>1709.1</ele>
        <time>2015-03-29T12:29:28Z</time>
      </trkpt>
      <trkpt lat="45.24074" lon="6.00731">
        <ele>1704</ele>
        <time>2015-03-29T12:29:30Z</time>
      </trkpt>
      <trkpt lat="45.24081" lon="6.00734">
        <ele>1699.5</ele>
        <time>2015-03-29T12:29:32Z</time>
      </trkpt>
      <trkpt lat="45.24086" lon="6.00737">
        <ele>1696</ele>
        <time>2015-03-29T12:29:34Z</time>
      </trkpt>
      <trkpt lat="45.2409" lon="6.00739">
        <ele>1694.7</ele>
        <time>2015-03-29T12:29:35Z</time>
      </trkpt>
      <trkpt lat="45.24094" lon="6.00743">
        <ele>1692.8</ele>
        <time>2015-03-29T12:29:36Z</time>
      </trkpt>
      <trkpt lat="45.24098" lon="6.00748">
        <ele>1691.3</ele>
        <time>2015-03-29T12:29:37Z</time>
      </trkpt>
      <trkpt lat="45.241" lon="6.00753">
        <ele>1689.5</ele>
        <time>2015-03-29T12:29:38Z</time>
      </trkpt>
      <trkpt lat="45.24104" lon="6.00758">
        <ele>1688.1</ele>
        <time>2015-03-29T12:29:39Z</time>
      </trkpt>
      <trkpt lat="45.2411" lon="6.00766">
        <ele>1685.6</ele>
        <time>2015-03-29T12:29:41Z</time>
      </trkpt>
      <trkpt lat="45.24118" lon="6.00769">
        <ele>1683.9</ele>
        <time>2015-03-29T12:29:43Z</time>
      </trkpt>
      <trkpt lat="45.24126" lon="6.00773">
        <ele>1681.6</ele>
        <time>2015-03-29T12:29:45Z</time>
      </trkpt>
      <trkpt lat="45.24133" lon="6.0078">
        <ele>1678.4</ele>
        <time>2015-03-29T12:29:47Z</time>
      </trkpt>
      <trkpt lat="45.2414" lon="6.00781">
        <ele>1674.5</ele>
        <time>2015-03-29T12:29:50Z</time>
      </trkpt>
      <trkpt lat="45.24147" lon="6.00772">
        <ele>1672</ele>
        <time>2015-03-29T12:29:53Z</time>
      </trkpt>
      <trkpt lat="45.24152" lon="6.00764">
        <ele>1670.9</ele>
        <time>2015-03-29T12:29:55Z</time>
      </trkpt>
      <trkpt lat="45.24157" lon="6.00755">
        <ele>1669.7</ele>
        <time>2015-03-29T12:29:57Z</time>
      </trkpt>
      <trkpt lat="45.2416" lon="6.00745">
        <ele>1668.6</ele>
        <time>2015-03-29T12:29:59Z</time>
      </trkpt>
      <trkpt lat="45.24164" lon="6.00736">
        <ele>1667.3</ele>
        <time>2015-03-29T12:30:01Z</time>
      </trkpt>
      <trkpt lat="45.24168" lon="6.00728">
        <ele>1665.9</ele>
        <time>2015-03-29T12:30:03Z</time>
      </trkpt>
      <trkpt lat="45.24172" lon="6.00721">
        <ele>1664.7</ele>
        <time>2015-03-29T12:30:05Z</time>
      </trkpt>
      <trkpt lat="45.24176" lon="6.00714">
        <ele>1663.8</ele>
        <time>2015-03-29T12:30:07Z</time>
      </trkpt>
      <trkpt lat="45.24182" lon="6.00708">
        <ele>1662.7</ele>
        <time>2015-03-29T12:30:09Z</time>
      </trkpt>
      <trkpt lat="45.24188" lon="6.00701">
        <ele>1662</ele>
        <time>2015-03-29T12:30:11Z</time>
      </trkpt>
      <trkpt lat="45.24192" lon="6.00695">
        <ele>1660.9</ele>
        <time>2015-03-29T12:30:13Z</time>
      </trkpt>
      <trkpt lat="45.24198" lon="6.0069">
        <ele>1659.9</ele>
        <time>2015-03-29T12:30:15Z</time>
      </trkpt>
      <trkpt lat="45.24205" lon="6.00683">
        <ele>1659.3</ele>
        <time>2015-03-29T12:30:17Z</time>
      </trkpt>
      <trkpt lat="45.2421" lon="6.00678">
        <ele>1659</ele>
        <time>2015-03-29T12:30:18Z</time>
      </trkpt>
      <trkpt lat="45.24215" lon="6.00673">
        <ele>1658.7</ele>
        <time>2015-03-29T12:30:19Z</time>
      </trkpt>
      <trkpt lat="45.24219" lon="6.00669">
        <ele>1658</ele>
        <time>2015-03-29T12:30:20Z</time>
      </trkpt>
      <trkpt lat="45.24219" lon="6.00669">
        <ele>1658</ele>
        <time>2015-03-29T12:30:20Z</time>
      </trkpt>
      <trkpt lat="45.24225" lon="6.00661">
        <ele>1656.4</ele>
        <time>2015-03-29T12:30:22Z</time>
      </trkpt>
      <trkpt lat="45.24231" lon="6.00652">
        <ele>1654.9</ele>
        <time>2015-03-29T12:30:24Z</time>
      </trkpt>
      <trkpt lat="45.24238" lon="6.00644">
        <ele>1653.7</ele>
        <time>2015-03-29T12:30:26Z</time>
      </trkpt>
      <trkpt lat="45.24241" lon="6.00639">
        <ele>1653.3</ele>
        <time>2015-03-29T12:30:27Z</time>
      </trkpt>
      <trkpt lat="45.24245" lon="6.00633">
        <ele>1652.1</ele>
        <time>2015-03-29T12:30:28Z</time>
      </trkpt>
      <trkpt lat="45.24249" lon="6.00625">
        <ele>1651.2</ele>
        <time>2015-03-29T12:30:29Z</time>
      </trkpt>
      <trkpt lat="45.24253" lon="6.00618">
        <ele>1650.2</ele>
        <time>2015-03-29T12:30:30Z</time>
      </trkpt>
      <trkpt lat="45.24258" lon="6.00612">
        <ele>1649.5</ele>
        <time>2015-03-29T12:30:31Z</time>
      </trkpt>
      <trkpt lat="45.24263" lon="6.00606">
        <ele>1648.5</ele>
        <time>2015-03-29T12:30:32Z</time>
      </trkpt>
      <trkpt lat="45.24269" lon="6.00598">
        <ele>1647.8</ele>
        <time>2015-03-29T12:30:33Z</time>
      </trkpt>
      <trkpt lat="45.24275" lon="6.00589">
        <ele>1646.9</ele>
        <time>2015-03-29T12:30:34Z</time>
      </trkpt>
      <trkpt lat="45.24282" lon="6.00581">
        <ele>1646.2</ele>
        <time>2015-03-29T12:30:35Z</time>
      </trkpt>
      <trkpt lat="45.2429" lon="6.00572">
        <ele>1644.9</ele>
        <time>2015-03-29T12:30:36Z</time>
      </trkpt>
      <trkpt lat="45.24297" lon="6.00563">
        <ele>1643.9</ele>
        <time>2015-03-29T12:30:37Z</time>
      </trkpt>
      <trkpt lat="45.24306" lon="6.00555">
        <ele>1642</ele>
        <time>2015-03-29T12:30:38Z</time>
      </trkpt>
      <trkpt lat="45.24314" lon="6.00548">
        <ele>1640.6</ele>
        <time>2015-03-29T12:30:39Z</time>
      </trkpt>
      <trkpt lat="45.24322" lon="6.00542">
        <ele>1638.9</ele>
        <time>2015-03-29T12:30:40Z</time>
      </trkpt>
      <trkpt lat="45.24329" lon="6.00536">
        <ele>1637.6</ele>
        <time>2015-03-29T12:30:41Z</time>
      </trkpt>
      <trkpt lat="45.24337" lon="6.0053">
        <ele>1635.7</ele>
        <time>2015-03-29T12:30:42Z</time>
      </trkpt>
      <trkpt lat="45.24343" lon="6.00525">
        <ele>1634.2</ele>
        <time>2015-03-29T12:30:43Z</time>
      </trkpt>
      <trkpt lat="45.24349" lon="6.00521">
        <ele>1632.7</ele>
        <time>2015-03-29T12:30:44Z</time>
      </trkpt>
      <trkpt lat="45.24355" lon="6.00516">
        <ele>1631.6</ele>
        <time>2015-03-29T12:30:45Z</time>
      </trkpt>
      <trkpt lat="45.24361" lon="6.0051">
        <ele>1630.5</ele>
        <time>2015-03-29T12:30:46Z</time>
      </trkpt>
      <trkpt lat="45.24366" lon="6.00506">
        <ele>1629.6</ele>
        <time>2015-03-29T12:30:47Z</time>
      </trkpt>
      <trkpt lat="45.24372" lon="6.005">
        <ele>1628.2</ele>
        <time>2015-03-29T12:30:48Z</time>
      </trkpt>
      <trkpt lat="45.24378" lon="6.00495">
        <ele>1627.1</ele>
        <time>2015-03-29T12:30:49Z</time>
      </trkpt>
      <trkpt lat="45.24384" lon="6.00489">
        <ele>1625.9</ele>
        <time>2015-03-29T12:30:50Z</time>
      </trkpt>
      <trkpt lat="45.24389" lon="6.00483">
        <ele>1625</ele>
        <time>2015-03-29T12:30:51Z</time>
      </trkpt>
      <trkpt lat="45.24395" lon="6.00478">
        <ele>1623.8</ele>
        <time>2015-03-29T12:30:52Z</time>
      </trkpt>
      <trkpt lat="45.244" lon="6.00472">
        <ele>1622.9</ele>
        <time>2015-03-29T12:30:53Z</time>
      </trkpt>
      <trkpt lat="45.24405" lon="6.00467">
        <ele>1621.6</ele>
        <time>2015-03-29T12:30:54Z</time>
      </trkpt>
      <trkpt lat="45.24409" lon="6.00461">
        <ele>1620.6</ele>
        <time>2015-03-29T12:30:55Z</time>
      </trkpt>
      <trkpt lat="45.24414" lon="6.00456">
        <ele>1619.4</ele>
        <time>2015-03-29T12:30:56Z</time>
      </trkpt>
      <trkpt lat="45.24417" lon="6.00451">
        <ele>1618.5</ele>
        <time>2015-03-29T12:30:57Z</time>
      </trkpt>
      <trkpt lat="45.24421" lon="6.00446">
        <ele>1617.7</ele>
        <time>2015-03-29T12:30:58Z</time>
      </trkpt>
      <trkpt lat="45.24424" lon="6.00441">
        <ele>1617</ele>
        <time>2015-03-29T12:30:59Z</time>
      </trkpt>
      <trkpt lat="45.24426" lon="6.00436">
        <ele>1616.4</ele>
        <time>2015-03-29T12:31:00Z</time>
      </trkpt>
      <trkpt lat="45.24429" lon="6.0043">
        <ele>1615.9</ele>
        <time>2015-03-29T12:31:01Z</time>
      </trkpt>
      <trkpt lat="45.24432" lon="6.00424">
        <ele>1615.3</ele>
        <time>2015-03-29T12:31:02Z</time>
      </trkpt>
      <trkpt lat="45.24435" lon="6.00417">
        <ele>1614.9</ele>
        <time>2015-03-29T12:31:03Z</time>
      </trkpt>
      <trkpt lat="45.24438" lon="6.00411">
        <ele>1614.1</ele>
        <time>2015-03-29T12:31:04Z</time>
      </trkpt>
      <trkpt lat="45.24441" lon="6.00404">
        <ele>1613.5</ele>
        <time>2015-03-29T12:31:05Z</time>
      </trkpt>
      <trkpt lat="45.24445" lon="6.00397">
        <ele>1612.9</ele>
        <time>2015-03-29T12:31:06Z</time>
      </trkpt>
      <trkpt lat="45.24449" lon="6.00388">
        <ele>1612.4</ele>
        <time>2015-03-29T12:31:07Z</time>
      </trkpt>
      <trkpt lat="45.24454" lon="6.0038">
        <ele>1611.7</ele>
        <time>2015-03-29T12:31:08Z</time>
      </trkpt>
      <trkpt lat="45.24457" lon="6.0037">
        <ele>1611.1</ele>
        <time>2015-03-29T12:31:09Z</time>
      </trkpt>
      <trkpt lat="45.24461" lon="6.0036">
        <ele>1610.3</ele>
        <time>2015-03-29T12:31:10Z</time>
      </trkpt>
      <trkpt lat="45.24464" lon="6.0035">
        <ele>1609.7</ele>
        <time>2015-03-29T12:31:11Z</time>
      </trkpt>
      <trkpt lat="45.24467" lon="6.00341">
        <ele>1608.3</ele>
        <time>2015-03-29T12:31:12Z</time>
      </trkpt>
      <trkpt lat="45.24471" lon="6.00332">
        <ele>1607.3</ele>
        <time>2015-03-29T12:31:13Z</time>
      </trkpt>
      <trkpt lat="45.24474" lon="6.00323">
        <ele>1606.4</ele>
        <time>2015-03-29T12:31:14Z</time>
      </trkpt>
      <trkpt lat="45.24477" lon="6.00314">
        <ele>1605.8</ele>
        <time>2015-03-29T12:31:15Z</time>
      </trkpt>
      <trkpt lat="45.2448" lon="6.00306">
        <ele>1604.5</ele>
        <time>2015-03-29T12:31:16Z</time>
      </trkpt>
      <trkpt lat="45.24483" lon="6.00297">
        <ele>1603.6</ele>
        <time>2015-03-29T12:31:17Z</time>
      </trkpt>
      <trkpt lat="45.24487" lon="6.00289">
        <ele>1602.6</ele>
        <time>2015-03-29T12:31:18Z</time>
      </trkpt>
      <trkpt lat="45.2449" lon="6.00281">
        <ele>1601.3</ele>
        <time>2015-03-29T12:31:19Z</time>
      </trkpt>
      <trkpt lat="45.24495" lon="6.00273">
        <ele>1600.3</ele>
        <time>2015-03-29T12:31:20Z</time>
      </trkpt>
      <trkpt lat="45.24499" lon="6.00265">
        <ele>1599.3</ele>
        <time>2015-03-29T12:31:21Z</time>
      </trkpt>
      <trkpt lat="45.24503" lon="6.00258">
        <ele>1598.5</ele>
        <time>2015-03-29T12:31:22Z</time>
      </trkpt>
      <trkpt lat="45.24508" lon="6.00251">
        <ele>1597.4</ele>
        <time>2015-03-29T12:31:23Z</time>
      </trkpt>
      <trkpt lat="45.24512" lon="6.00245">
        <ele>1596.5</ele>
        <time>2015-03-29T12:31:24Z</time>
      </trkpt>
      <trkpt lat="45.24517" lon="6.00237">
        <ele>1595.4</ele>
        <time>2015-03-29T12:31:25Z</time>
      </trkpt>
      <trkpt lat="45.24522" lon="6.0023">
        <ele>1594.6</ele>
        <time>2015-03-29T12:31:26Z</time>
      </trkpt>
      <trkpt lat="45.24527" lon="6.00224">
        <ele>1593.5</ele>
        <time>2015-03-29T12:31:27Z</time>
      </trkpt>
      <trkpt lat="45.24531" lon="6.00217">
        <ele>1592.7</ele>
        <time>2015-03-29T12:31:28Z</time>
      </trkpt>
      <trkpt lat="45.24537" lon="6.0021">
        <ele>1592</ele>
        <time>2015-03-29T12:31:29Z</time>
      </trkpt>
      <trkpt lat="45.24543" lon="6.00205">
        <ele>1591.5</ele>
        <time>2015-03-29T12:31:30Z</time>
      </trkpt>
      <trkpt lat="45.2455" lon="6.002">
        <ele>1590.2</ele>
        <time>2015-03-29T12:31:31Z</time>
      </trkpt>
      <trkpt lat="45.24557" lon="6.00199">
        <ele>1589.3</ele>
        <time>2015-03-29T12:31:32Z</time>
      </trkpt>
      <trkpt lat="45.24562" lon="6.00192">
        <ele>1587.3</ele>
        <time>2015-03-29T12:31:34Z</time>
      </trkpt>
      <trkpt lat="45.24559" lon="6.00186">
        <ele>1586.4</ele>
        <time>2015-03-29T12:31:35Z</time>
      </trkpt>
      <trkpt lat="45.24558" lon="6.00177">
        <ele>1585.7</ele>
        <time>2015-03-29T12:31:36Z</time>
      </trkpt>
      <trkpt lat="45.2456" lon="6.0017">
        <ele>1584.6</ele>
        <time>2015-03-29T12:31:37Z</time>
      </trkpt>
      <trkpt lat="45.24561" lon="6.00161">
        <ele>1583.7</ele>
        <time>2015-03-29T12:31:38Z</time>
      </trkpt>
      <trkpt lat="45.24562" lon="6.00154">
        <ele>1581.9</ele>
        <time>2015-03-29T12:31:39Z</time>
      </trkpt>
      <trkpt lat="45.24563" lon="6.00147">
        <ele>1580.5</ele>
        <time>2015-03-29T12:31:40Z</time>
      </trkpt>
      <trkpt lat="45.24562" lon="6.00141">
        <ele>1578.6</ele>
        <time>2015-03-29T12:31:41Z</time>
      </trkpt>
      <trkpt lat="45.24561" lon="6.00134">
        <ele>1577.1</ele>
        <time>2015-03-29T12:31:42Z</time>
      </trkpt>
      <trkpt lat="45.24562" lon="6.00127">
        <ele>1575</ele>
        <time>2015-03-29T12:31:43Z</time>
      </trkpt>
      <trkpt lat="45.24564" lon="6.0012">
        <ele>1573.4</ele>
        <time>2015-03-29T12:31:44Z</time>
      </trkpt>
      <trkpt lat="45.24563" lon="6.00111">
        <ele>1571.3</ele>
        <time>2015-03-29T12:31:45Z</time>
      </trkpt>
      <trkpt lat="45.24563" lon="6.001">
        <ele>1569.7</ele>
        <time>2015-03-29T12:31:46Z</time>
      </trkpt>
      <trkpt lat="45.24566" lon="6.00089">
        <ele>1567.7</ele>
        <time>2015-03-29T12:31:47Z</time>
      </trkpt>
      <trkpt lat="45.24567" lon="6.0008">
        <ele>1566.3</ele>
        <time>2015-03-29T12:31:48Z</time>
      </trkpt>
      <trkpt lat="45.24565" lon="6.00071">
        <ele>1563.3</ele>
        <time>2015-03-29T12:31:49Z</time>
      </trkpt>
      <trkpt lat="45.24565" lon="6.00059">
        <ele>1561.1</ele>
        <time>2015-03-29T12:31:50Z</time>
      </trkpt>
      <trkpt lat="45.24567" lon="6.00051">
        <ele>1558.4</ele>
        <time>2015-03-29T12:31:51Z</time>
      </trkpt>
      <trkpt lat="45.2457" lon="6.00039">
        <ele>1553</ele>
        <time>2015-03-29T12:31:53Z</time>
      </trkpt>
      <trkpt lat="45.24572" lon="6.00031">
        <ele>1550.6</ele>
        <time>2015-03-29T12:31:54Z</time>
      </trkpt>
      <trkpt lat="45.24576" lon="6.00021">
        <ele>1546.6</ele>
        <time>2015-03-29T12:31:56Z</time>
      </trkpt>
      <trkpt lat="45.24576" lon="6.0001">
        <ele>1542.4</ele>
        <time>2015-03-29T12:31:58Z</time>
      </trkpt>
      <trkpt lat="45.24575" lon="6.00003">
        <ele>1540.6</ele>
        <time>2015-03-29T12:31:59Z</time>
      </trkpt>
      <trkpt lat="45.24575" lon="5.99997">
        <ele>1539.2</ele>
        <time>2015-03-29T12:32:00Z</time>
      </trkpt>
      <trkpt lat="45.24576" lon="5.99989">
        <ele>1536.9</ele>
        <time>2015-03-29T12:32:01Z</time>
      </trkpt>
      <trkpt lat="45.24575" lon="5.9998">
        <ele>1535.1</ele>
        <time>2015-03-29T12:32:02Z</time>
      </trkpt>
      <trkpt lat="45.24574" lon="5.99969">
        <ele>1532.9</ele>
        <time>2015-03-29T12:32:03Z</time>
      </trkpt>
      <trkpt lat="45.24575" lon="5.9996">
        <ele>1531.2</ele>
        <time>2015-03-29T12:32:04Z</time>
      </trkpt>
      <trkpt lat="45.24573" lon="5.99953">
        <ele>1528.4</ele>
        <time>2015-03-29T12:32:05Z</time>
      </trkpt>
      <trkpt lat="45.24574" lon="5.99944">
        <ele>1526.4</ele>
        <time>2015-03-29T12:32:06Z</time>
      </trkpt>
      <trkpt lat="45.24577" lon="5.99934">
        <ele>1523.7</ele>
        <time>2015-03-29T12:32:07Z</time>
      </trkpt>
      <trkpt lat="45.2458" lon="5.99927">
        <ele>1521.6</ele>
        <time>2015-03-29T12:32:08Z</time>
      </trkpt>
      <trkpt lat="45.24582" lon="5.99918">
        <ele>1518.7</ele>
        <time>2015-03-29T12:32:09Z</time>
      </trkpt>
      <trkpt lat="45.24585" lon="5.99909">
        <ele>1516.5</ele>
        <time>2015-03-29T12:32:10Z</time>
      </trkpt>
      <trkpt lat="45.2459" lon="5.99904">
        <ele>1514.1</ele>
        <time>2015-03-29T12:32:11Z</time>
      </trkpt>
      <trkpt lat="45.24594" lon="5.99899">
        <ele>1512.4</ele>
        <time>2015-03-29T12:32:12Z</time>
      </trkpt>
      <trkpt lat="45.24595" lon="5.99894">
        <ele>1509.5</ele>
        <time>2015-03-29T12:32:13Z</time>
      </trkpt>
      <trkpt lat="45.24596" lon="5.99885">
        <ele>1507.3</ele>
        <time>2015-03-29T12:32:14Z</time>
      </trkpt>
      <trkpt lat="45.24596" lon="5.99878">
        <ele>1504.6</ele>
        <time>2015-03-29T12:32:15Z</time>
      </trkpt>
      <trkpt lat="45.24599" lon="5.99872">
        <ele>1502.6</ele>
        <time>2015-03-29T12:32:16Z</time>
      </trkpt>
      <trkpt lat="45.24602" lon="5.99864">
        <ele>1499.9</ele>
        <time>2015-03-29T12:32:17Z</time>
      </trkpt>
      <trkpt lat="45.24606" lon="5.99856">
        <ele>1497.8</ele>
        <time>2015-03-29T12:32:18Z</time>
      </trkpt>
      <trkpt lat="45.24611" lon="5.99849">
        <ele>1495.3</ele>
        <time>2015-03-29T12:32:19Z</time>
      </trkpt>
      <trkpt lat="45.24615" lon="5.99842">
        <ele>1493.4</ele>
        <time>2015-03-29T12:32:20Z</time>
      </trkpt>
      <trkpt lat="45.24621" lon="5.99834">
        <ele>1490.7</ele>
        <time>2015-03-29T12:32:21Z</time>
      </trkpt>
      <trkpt lat="45.24628" lon="5.99826">
        <ele>1488.6</ele>
        <time>2015-03-29T12:32:22Z</time>
      </trkpt>
      <trkpt lat="45.24637" lon="5.9982">
        <ele>1485.4</ele>
        <time>2015-03-29T12:32:23Z</time>
      </trkpt>
      <trkpt lat="45.24646" lon="5.99808">
        <ele>1483</ele>
        <time>2015-03-29T12:32:24Z</time>
      </trkpt>
      <trkpt lat="45.24657" lon="5.99797">
        <ele>1479.9</ele>
        <time>2015-03-29T12:32:25Z</time>
      </trkpt>
      <trkpt lat="45.24669" lon="5.99787">
        <ele>1477.6</ele>
        <time>2015-03-29T12:32:26Z</time>
      </trkpt>
      <trkpt lat="45.24682" lon="5.99777">
        <ele>1473.6</ele>
        <time>2015-03-29T12:32:27Z</time>
      </trkpt>
      <trkpt lat="45.24693" lon="5.9977">
        <ele>1470.6</ele>
        <time>2015-03-29T12:32:28Z</time>
      </trkpt>
      <trkpt lat="45.24703" lon="5.99762">
        <ele>1466.6</ele>
        <time>2015-03-29T12:32:29Z</time>
      </trkpt>
      <trkpt lat="45.24714" lon="5.99753">
        <ele>1463.5</ele>
        <time>2015-03-29T12:32:30Z</time>
      </trkpt>
      <trkpt lat="45.24722" lon="5.99742">
        <ele>1460.3</ele>
        <time>2015-03-29T12:32:31Z</time>
      </trkpt>
      <trkpt lat="45.24722" lon="5.99742">
        <ele>1460.3</ele>
        <time>2015-03-29T12:32:31Z</time>
      </trkpt>
      <trkpt lat="45.24732" lon="5.99732">
        <ele>1457.8</ele>
        <time>2015-03-29T12:32:32Z</time>
      </trkpt>
      <trkpt lat="45.24742" lon="5.99725">
        <ele>1454.9</ele>
        <time>2015-03-29T12:32:33Z</time>
      </trkpt>
      <trkpt lat="45.24753" lon="5.99717">
        <ele>1452.7</ele>
        <time>2015-03-29T12:32:34Z</time>
      </trkpt>
      <trkpt lat="45.24762" lon="5.99706">
        <ele>1449.9</ele>
        <time>2015-03-29T12:32:35Z</time>
      </trkpt>
      <trkpt lat="45.24768" lon="5.99693">
        <ele>1447.8</ele>
        <time>2015-03-29T12:32:36Z</time>
      </trkpt>
      <trkpt lat="45.24775" lon="5.99682">
        <ele>1445.1</ele>
        <time>2015-03-29T12:32:37Z</time>
      </trkpt>
      <trkpt lat="45.24784" lon="5.99675">
        <ele>1443.1</ele>
        <time>2015-03-29T12:32:38Z</time>
      </trkpt>
      <trkpt lat="45.24793" lon="5.99669">
        <ele>1440.9</ele>
        <time>2015-03-29T12:32:39Z</time>
      </trkpt>
      <trkpt lat="45.248" lon="5.99662">
        <ele>1439.3</ele>
        <time>2015-03-29T12:32:40Z</time>
      </trkpt>
      <trkpt lat="45.24805" lon="5.99653">
        <ele>1437.2</ele>
        <time>2015-03-29T12:32:41Z</time>
      </trkpt>
      <trkpt lat="45.24812" lon="5.99645">
        <ele>1435.7</ele>
        <time>2015-03-29T12:32:42Z</time>
      </trkpt>
      <trkpt lat="45.24819" lon="5.99639">
        <ele>1434.2</ele>
        <time>2015-03-29T12:32:43Z</time>
      </trkpt>
      <trkpt lat="45.24825" lon="5.99632">
        <ele>1433.1</ele>
        <time>2015-03-29T12:32:44Z</time>
      </trkpt>
      <trkpt lat="45.2483" lon="5.99625">
        <ele>1432.2</ele>
        <time>2015-03-29T12:32:45Z</time>
      </trkpt>
      <trkpt lat="45.24835" lon="5.99617">
        <ele>1431.5</ele>
        <time>2015-03-29T12:32:46Z</time>
      </trkpt>
      <trkpt lat="45.24841" lon="5.99612">
        <ele>1430.5</ele>
        <time>2015-03-29T12:32:47Z</time>
      </trkpt>
      <trkpt lat="45.24846" lon="5.99608">
        <ele>1429.7</ele>
        <time>2015-03-29T12:32:48Z</time>
      </trkpt>
      <trkpt lat="45.2485" lon="5.99602">
        <ele>1429.1</ele>
        <time>2015-03-29T12:32:49Z</time>
      </trkpt>
      <trkpt lat="45.24854" lon="5.99595">
        <ele>1428.6</ele>
        <time>2015-03-29T12:32:50Z</time>
      </trkpt>
      <trkpt lat="45.24858" lon="5.99588">
        <ele>1427.9</ele>
        <time>2015-03-29T12:32:51Z</time>
      </trkpt>
      <trkpt lat="45.24863" lon="5.99585">
        <ele>1427.4</ele>
        <time>2015-03-29T12:32:52Z</time>
      </trkpt>
      <trkpt lat="45.24869" lon="5.99581">
        <ele>1427</ele>
        <time>2015-03-29T12:32:53Z</time>
      </trkpt>
      <trkpt lat="45.24874" lon="5.99575">
        <ele>1426.7</ele>
        <time>2015-03-29T12:32:54Z</time>
      </trkpt>
      <trkpt lat="45.24879" lon="5.99569">
        <ele>1425.8</ele>
        <time>2015-03-29T12:32:55Z</time>
      </trkpt>
      <trkpt lat="45.24885" lon="5.99564">
        <ele>1425.1</ele>
        <time>2015-03-29T12:32:56Z</time>
      </trkpt>
      <trkpt lat="45.24891" lon="5.99561">
        <ele>1424.2</ele>
        <time>2015-03-29T12:32:57Z</time>
      </trkpt>
      <trkpt lat="45.24898" lon="5.99557">
        <ele>1423.5</ele>
        <time>2015-03-29T12:32:58Z</time>
      </trkpt>
      <trkpt lat="45.24903" lon="5.99551">
        <ele>1422.7</ele>
        <time>2015-03-29T12:32:59Z</time>
      </trkpt>
      <trkpt lat="45.24909" lon="5.99546">
        <ele>1422.1</ele>
        <time>2015-03-29T12:33:00Z</time>
      </trkpt>
      <trkpt lat="45.24915" lon="5.99544">
        <ele>1421.3</ele>
        <time>2015-03-29T12:33:01Z</time>
      </trkpt>
      <trkpt lat="45.24922" lon="5.99541">
        <ele>1420.6</ele>
        <time>2015-03-29T12:33:02Z</time>
      </trkpt>
      <trkpt lat="45.24927" lon="5.99535">
        <ele>1419.9</ele>
        <time>2015-03-29T12:33:03Z</time>
      </trkpt>
      <trkpt lat="45.24931" lon="5.99529">
        <ele>1419.3</ele>
        <time>2015-03-29T12:33:04Z</time>
      </trkpt>
      <trkpt lat="45.24937" lon="5.99524">
        <ele>1418.3</ele>
        <time>2015-03-29T12:33:05Z</time>
      </trkpt>
      <trkpt lat="45.24943" lon="5.99522">
        <ele>1417.6</ele>
        <time>2015-03-29T12:33:06Z</time>
      </trkpt>
      <trkpt lat="45.24949" lon="5.99519">
        <ele>1417</ele>
        <time>2015-03-29T12:33:07Z</time>
      </trkpt>
      <trkpt lat="45.24954" lon="5.99514">
        <ele>1416.6</ele>
        <time>2015-03-29T12:33:08Z</time>
      </trkpt>
      <trkpt lat="45.24957" lon="5.99507">
        <ele>1416.1</ele>
        <time>2015-03-29T12:33:09Z</time>
      </trkpt>
      <trkpt lat="45.24961" lon="5.99508">
        <ele>1410.8</ele>
        <time>2015-03-29T12:34:25Z</time>
      </trkpt>
      <trkpt lat="45.24961" lon="5.99508">
        <ele>1410.8</ele>
        <time>2015-03-29T12:34:25Z</time>
      </trkpt>
      <trkpt lat="45.24714" lon="5.99753">
        <ele>1463.5</ele>
        <time>2015-03-29T12:32:30Z</time>
      </trkpt>
      <trkpt lat="45.24722" lon="5.99742">
        <ele>1460.3</ele>
        <time>2015-03-29T12:32:31Z</time>
      </trkpt>
      <trkpt lat="45.24732" lon="5.99732">
        <ele>1457.8</ele>
        <time>2015-03-29T12:32:32Z</time>
      </trkpt>
      <trkpt lat="45.24742" lon="5.99725">
        <ele>1454.9</ele>
        <time>2015-03-29T12:32:33Z</time>
      </trkpt>
      <trkpt lat="45.24753" lon="5.99717">
        <ele>1452.7</ele>
        <time>2015-03-29T12:32:34Z</time>
      </trkpt>
      <trkpt lat="45.24762" lon="5.99706">
        <ele>1449.9</ele>
        <time>2015-03-29T12:32:35Z</time>
      </trkpt>
      <trkpt lat="45.24768" lon="5.99693">
        <ele>1447.8</ele>
        <time>2015-03-29T12:32:36Z</time>
      </trkpt>
      <trkpt lat="45.24775" lon="5.99682">
        <ele>1445.1</ele>
        <time>2015-03-29T12:32:37Z</time>
      </trkpt>
      <trkpt lat="45.24784" lon="5.99675">
        <ele>1443.1</ele>
        <time>2015-03-29T12:32:38Z</time>
      </trkpt>
      <trkpt lat="45.24793" lon="5.99669">
        <ele>1440.9</ele>
        <time>2015-03-29T12:32:39Z</time>
      </trkpt>
      <trkpt lat="45.248" lon="5.99662">
        <ele>1439.3</ele>
        <time>2015-03-29T12:32:40Z</time>
      </trkpt>
      <trkpt lat="45.24805" lon="5.99653">
        <ele>1437.2</ele>
        <time>2015-03-29T12:32:41Z</time>
      </trkpt>
      <trkpt lat="45.24812" lon="5.99645">
        <ele>1435.7</ele>
        <time>2015-03-29T12:32:42Z</time>
      </trkpt>
      <trkpt lat="45.24819" lon="5.99639">
        <ele>1434.2</ele>
        <time>2015-03-29T12:32:43Z</time>
      </trkpt>
      <trkpt lat="45.24825" lon="5.99632">
        <ele>1433.1</ele>
        <time>2015-03-29T12:32:44Z</time>
      </trkpt>
      <trkpt lat="45.2483" lon="5.99625">
        <ele>1432.2</ele>
        <time>2015-03-29T12:32:45Z</time>
      </trkpt>
      <trkpt lat="45.24835" lon="5.99617">
        <ele>1431.5</ele>
        <time>2015-03-29T12:32:46Z</time>
      </trkpt>
      <trkpt lat="45.24841" lon="5.99612">
        <ele>1430.5</ele>
        <time>2015-03-29T12:32:47Z</time>
      </trkpt>
      <trkpt lat="45.24846" lon="5.99608">
        <ele>1429.7</ele>
        <time>2015-03-29T12:32:48Z</time>
      </trkpt>
      <trkpt lat="45.2485" lon="5.99602">
        <ele>1429.1</ele>
        <time>2015-03-29T12:32:49Z</time>
      </trkpt>
      <trkpt lat="45.24854" lon="5.99595">
        <ele>1428.6</ele>
        <time>2015-03-29T12:32:50Z</time>
      </trkpt>
      <trkpt lat="45.24858" lon="5.99588">
        <ele>1427.9</ele>
        <time>2015-03-29T12:32:51Z</time>
      </trkpt>
      <trkpt lat="45.24863" lon="5.99585">
        <ele>1427.4</ele>
        <time>2015-03-29T12:32:52Z</time>
      </trkpt>
      <trkpt lat="45.24869" lon="5.99581">
        <ele>1427</ele>
        <time>2015-03-29T12:32:53Z</time>
      </trkpt>
      <trkpt lat="45.24874" lon="5.99575">
        <ele>1426.7</ele>
        <time>2015-03-29T12:32:54Z</time>
      </trkpt>
      <trkpt lat="45.24879" lon="5.99569">
        <ele>1425.8</ele>
        <time>2015-03-29T12:32:55Z</time>
      </trkpt>
      <trkpt lat="45.24885" lon="5.99564">
        <ele>1425.1</ele>
        <time>2015-03-29T12:32:56Z</time>
      </trkpt>
      <trkpt lat="45.24891" lon="5.99561">
        <ele>1424.2</ele>
        <time>2015-03-29T12:32:57Z</time>
      </trkpt>
      <trkpt lat="45.24898" lon="5.99557">
        <ele>1423.5</ele>
        <time>2015-03-29T12:32:58Z</time>
      </trkpt>
      <trkpt lat="45.24903" lon="5.99551">
        <ele>1422.7</ele>
        <time>2015-03-29T12:32:59Z</time>
      </trkpt>
      <trkpt lat="45.24909" lon="5.99546">
        <ele>1422.1</ele>
        <time>2015-03-29T12:33:00Z</time>
      </trkpt>
      <trkpt lat="45.24915" lon="5.99544">
        <ele>1421.3</ele>
        <time>2015-03-29T12:33:01Z</time>
      </trkpt>
      <trkpt lat="45.24922" lon="5.99541">
        <ele>1420.6</ele>
        <time>2015-03-29T12:33:02Z</time>
      </trkpt>
      <trkpt lat="45.24927" lon="5.99535">
        <ele>1419.9</ele>
        <time>2015-03-29T12:33:03Z</time>
      </trkpt>
      <trkpt lat="45.24931" lon="5.99529">
        <ele>1419.3</ele>
        <time>2015-03-29T12:33:04Z</time>
      </trkpt>
      <trkpt lat="45.24937" lon="5.99524">
        <ele>1418.3</ele>
        <time>2015-03-29T12:33:05Z</time>
      </trkpt>
      <trkpt lat="45.24943" lon="5.99522">
        <ele>1417.6</ele>
        <time>2015-03-29T12:33:06Z</time>
      </trkpt>
      <trkpt lat="45.24949" lon="5.99519">
        <ele>1417</ele>
        <time>2015-03-29T12:33:07Z</time>
      </trkpt>
      <trkpt lat="45.24954" lon="5.99514">
        <ele>1416.6</ele>
        <time>2015-03-29T12:33:08Z</time>
      </trkpt>
      <trkpt lat="45.24957" lon="5.99507">
        <ele>1416.1</ele>
        <time>2015-03-29T12:33:09Z</time>
      </trkpt>
      <trkpt lat="45.24961" lon="5.99508">
        <ele>1410.8</ele>
        <time>2015-03-29T12:34:25Z</time>
      </trkpt>
      <trkpt lat="45.24961" lon="5.99508">
        <ele>1410.8</ele>
        <time>2015-03-29T12:34:25Z</time>
      </trkpt>
      <trkpt lat="45.2496" lon="5.99509">
        <ele>1411.8</ele>
        <time>2015-03-29T12:34:39Z</time>
      </trkpt>
    </trkseg>
  </trk>
</gpx>